<?xml version="1.0" encoding="UTF-8" standalone="no" ?>
<gpx xmlns="http://www.topografix.com/GPX/1/1" xmlns:xsi="http://www.w3.org/2001/XMLSchema-instance" xsi:schemaLocation="http://www.topografix.com/GPX/1/1 http://www.topografix.com/GPX/1/1/gpx.xsd" version="1.1" creator="VisuGPX - https://www.visugpx.com">
  <metadata>
    <name>06-D-St Martin Vésubie</name>
    <desc><![CDATA[06-D-St Martin Vésubie : lacs des Millefonts - Mt Pépoiri
2020-09-10-jeudi]]></desc>
  </metadata>
  <trk>
    <name><![CDATA[2020-09-10-pepoiri]]></name>
    <trkseg>
      <trkpt lat="44.09848" lon="7.18641">
        <ele>2095.8</ele>
        <time>2020-09-10T07:25:35Z</time>
      </trkpt>
      <trkpt lat="44.09847" lon="7.18641">
        <ele>2095</ele>
        <time>2020-09-10T07:25:36Z</time>
      </trkpt>
      <trkpt lat="44.0985" lon="7.18654">
        <ele>2049.4</ele>
        <time>2020-09-10T07:28:58Z</time>
      </trkpt>
      <trkpt lat="44.09854" lon="7.18665">
        <ele>2048.9</ele>
        <time>2020-09-10T07:29:09Z</time>
      </trkpt>
      <trkpt lat="44.0986" lon="7.18675">
        <ele>2048.3</ele>
        <time>2020-09-10T07:29:23Z</time>
      </trkpt>
      <trkpt lat="44.09867" lon="7.18683">
        <ele>2048.2</ele>
        <time>2020-09-10T07:29:34Z</time>
      </trkpt>
      <trkpt lat="44.09867" lon="7.18695">
        <ele>2047.5</ele>
        <time>2020-09-10T07:29:58Z</time>
      </trkpt>
      <trkpt lat="44.09874" lon="7.18705">
        <ele>2047.1</ele>
        <time>2020-09-10T07:30:23Z</time>
      </trkpt>
      <trkpt lat="44.09878" lon="7.18718">
        <ele>2047.2</ele>
        <time>2020-09-10T07:30:32Z</time>
      </trkpt>
      <trkpt lat="44.09869" lon="7.18724">
        <ele>2048.3</ele>
        <time>2020-09-10T07:34:28Z</time>
      </trkpt>
      <trkpt lat="44.0986" lon="7.1872">
        <ele>2048.9</ele>
        <time>2020-09-10T07:34:49Z</time>
      </trkpt>
      <trkpt lat="44.0985" lon="7.18719">
        <ele>2050</ele>
        <time>2020-09-10T07:34:59Z</time>
      </trkpt>
      <trkpt lat="44.09841" lon="7.18723">
        <ele>2050.4</ele>
        <time>2020-09-10T07:35:07Z</time>
      </trkpt>
      <trkpt lat="44.09833" lon="7.18731">
        <ele>2051.1</ele>
        <time>2020-09-10T07:35:15Z</time>
      </trkpt>
      <trkpt lat="44.09828" lon="7.18743">
        <ele>2051.3</ele>
        <time>2020-09-10T07:35:25Z</time>
      </trkpt>
      <trkpt lat="44.09824" lon="7.18756">
        <ele>2051.6</ele>
        <time>2020-09-10T07:35:34Z</time>
      </trkpt>
      <trkpt lat="44.09821" lon="7.18767">
        <ele>2051.4</ele>
        <time>2020-09-10T07:35:42Z</time>
      </trkpt>
      <trkpt lat="44.09818" lon="7.1878">
        <ele>2050.7</ele>
        <time>2020-09-10T07:35:51Z</time>
      </trkpt>
      <trkpt lat="44.09816" lon="7.18792">
        <ele>2051</ele>
        <time>2020-09-10T07:36:00Z</time>
      </trkpt>
      <trkpt lat="44.09812" lon="7.18805">
        <ele>2051</ele>
        <time>2020-09-10T07:36:09Z</time>
      </trkpt>
      <trkpt lat="44.09807" lon="7.18816">
        <ele>2051.3</ele>
        <time>2020-09-10T07:36:17Z</time>
      </trkpt>
      <trkpt lat="44.09802" lon="7.18826">
        <ele>2051.6</ele>
        <time>2020-09-10T07:36:26Z</time>
      </trkpt>
      <trkpt lat="44.09798" lon="7.18838">
        <ele>2051.9</ele>
        <time>2020-09-10T07:36:34Z</time>
      </trkpt>
      <trkpt lat="44.09801" lon="7.1885">
        <ele>2050.1</ele>
        <time>2020-09-10T07:36:59Z</time>
      </trkpt>
      <trkpt lat="44.09806" lon="7.18861">
        <ele>2052.4</ele>
        <time>2020-09-10T07:37:08Z</time>
      </trkpt>
      <trkpt lat="44.09813" lon="7.18871">
        <ele>2053</ele>
        <time>2020-09-10T07:37:30Z</time>
      </trkpt>
      <trkpt lat="44.09822" lon="7.18872">
        <ele>2057.9</ele>
        <time>2020-09-10T07:38:08Z</time>
      </trkpt>
      <trkpt lat="44.09831" lon="7.18875">
        <ele>2061</ele>
        <time>2020-09-10T07:38:35Z</time>
      </trkpt>
      <trkpt lat="44.09836" lon="7.18886">
        <ele>2064.3</ele>
        <time>2020-09-10T07:38:55Z</time>
      </trkpt>
      <trkpt lat="44.0984" lon="7.18898">
        <ele>2065.7</ele>
        <time>2020-09-10T07:39:24Z</time>
      </trkpt>
      <trkpt lat="44.09849" lon="7.18903">
        <ele>2065.9</ele>
        <time>2020-09-10T07:39:37Z</time>
      </trkpt>
      <trkpt lat="44.09858" lon="7.18908">
        <ele>2067.7</ele>
        <time>2020-09-10T07:39:52Z</time>
      </trkpt>
      <trkpt lat="44.09865" lon="7.18915">
        <ele>2071.3</ele>
        <time>2020-09-10T07:40:09Z</time>
      </trkpt>
      <trkpt lat="44.09874" lon="7.18911">
        <ele>2072.6</ele>
        <time>2020-09-10T07:40:25Z</time>
      </trkpt>
      <trkpt lat="44.09881" lon="7.18919">
        <ele>2076.4</ele>
        <time>2020-09-10T07:40:49Z</time>
      </trkpt>
      <trkpt lat="44.0989" lon="7.18922">
        <ele>2078</ele>
        <time>2020-09-10T07:41:03Z</time>
      </trkpt>
      <trkpt lat="44.09895" lon="7.18933">
        <ele>2079.6</ele>
        <time>2020-09-10T07:41:22Z</time>
      </trkpt>
      <trkpt lat="44.09903" lon="7.1894">
        <ele>2081.8</ele>
        <time>2020-09-10T07:41:57Z</time>
      </trkpt>
      <trkpt lat="44.09911" lon="7.18947">
        <ele>2083.6</ele>
        <time>2020-09-10T07:42:08Z</time>
      </trkpt>
      <trkpt lat="44.09919" lon="7.18952">
        <ele>2085.5</ele>
        <time>2020-09-10T07:42:20Z</time>
      </trkpt>
      <trkpt lat="44.09928" lon="7.18953">
        <ele>2087.3</ele>
        <time>2020-09-10T07:42:33Z</time>
      </trkpt>
      <trkpt lat="44.09937" lon="7.18948">
        <ele>2090.1</ele>
        <time>2020-09-10T07:42:52Z</time>
      </trkpt>
      <trkpt lat="44.09946" lon="7.18944">
        <ele>2092.7</ele>
        <time>2020-09-10T07:43:20Z</time>
      </trkpt>
      <trkpt lat="44.09955" lon="7.18941">
        <ele>2092.7</ele>
        <time>2020-09-10T07:43:31Z</time>
      </trkpt>
      <trkpt lat="44.09965" lon="7.18939">
        <ele>2093.2</ele>
        <time>2020-09-10T07:43:41Z</time>
      </trkpt>
      <trkpt lat="44.09973" lon="7.18935">
        <ele>2093.6</ele>
        <time>2020-09-10T07:43:52Z</time>
      </trkpt>
      <trkpt lat="44.09982" lon="7.18929">
        <ele>2094.9</ele>
        <time>2020-09-10T07:44:03Z</time>
      </trkpt>
      <trkpt lat="44.09991" lon="7.18928">
        <ele>2098</ele>
        <time>2020-09-10T07:44:20Z</time>
      </trkpt>
      <trkpt lat="44.10001" lon="7.18926">
        <ele>2099.5</ele>
        <time>2020-09-10T07:44:34Z</time>
      </trkpt>
      <trkpt lat="44.1001" lon="7.18927">
        <ele>2100.3</ele>
        <time>2020-09-10T07:44:46Z</time>
      </trkpt>
      <trkpt lat="44.10019" lon="7.18927">
        <ele>2100.4</ele>
        <time>2020-09-10T07:44:57Z</time>
      </trkpt>
      <trkpt lat="44.10029" lon="7.18925">
        <ele>2100.6</ele>
        <time>2020-09-10T07:45:08Z</time>
      </trkpt>
      <trkpt lat="44.10038" lon="7.18925">
        <ele>2101.3</ele>
        <time>2020-09-10T07:45:20Z</time>
      </trkpt>
      <trkpt lat="44.10047" lon="7.18919">
        <ele>2104.5</ele>
        <time>2020-09-10T07:45:36Z</time>
      </trkpt>
      <trkpt lat="44.10056" lon="7.1892">
        <ele>2105.1</ele>
        <time>2020-09-10T07:45:47Z</time>
      </trkpt>
      <trkpt lat="44.10065" lon="7.18922">
        <ele>2106.2</ele>
        <time>2020-09-10T07:46:01Z</time>
      </trkpt>
      <trkpt lat="44.10074" lon="7.18925">
        <ele>2106.4</ele>
        <time>2020-09-10T07:46:12Z</time>
      </trkpt>
      <trkpt lat="44.10083" lon="7.18929">
        <ele>2109.3</ele>
        <time>2020-09-10T07:46:27Z</time>
      </trkpt>
      <trkpt lat="44.10092" lon="7.18929">
        <ele>2112.6</ele>
        <time>2020-09-10T07:46:56Z</time>
      </trkpt>
      <trkpt lat="44.10099" lon="7.18921">
        <ele>2113.9</ele>
        <time>2020-09-10T07:49:00Z</time>
      </trkpt>
      <trkpt lat="44.10108" lon="7.18923">
        <ele>2114.2</ele>
        <time>2020-09-10T07:49:23Z</time>
      </trkpt>
      <trkpt lat="44.10117" lon="7.18927">
        <ele>2116.5</ele>
        <time>2020-09-10T07:49:41Z</time>
      </trkpt>
      <trkpt lat="44.10126" lon="7.1893">
        <ele>2118.7</ele>
        <time>2020-09-10T07:49:55Z</time>
      </trkpt>
      <trkpt lat="44.10135" lon="7.18931">
        <ele>2121.2</ele>
        <time>2020-09-10T07:50:11Z</time>
      </trkpt>
      <trkpt lat="44.10143" lon="7.18936">
        <ele>2121.8</ele>
        <time>2020-09-10T07:50:26Z</time>
      </trkpt>
      <trkpt lat="44.10153" lon="7.18938">
        <ele>2121.9</ele>
        <time>2020-09-10T07:50:40Z</time>
      </trkpt>
      <trkpt lat="44.10162" lon="7.18936">
        <ele>2122.1</ele>
        <time>2020-09-10T07:50:55Z</time>
      </trkpt>
      <trkpt lat="44.10171" lon="7.18939">
        <ele>2121.2</ele>
        <time>2020-09-10T07:51:21Z</time>
      </trkpt>
      <trkpt lat="44.1018" lon="7.18939">
        <ele>2121.8</ele>
        <time>2020-09-10T07:51:31Z</time>
      </trkpt>
      <trkpt lat="44.10189" lon="7.18935">
        <ele>2121.7</ele>
        <time>2020-09-10T07:51:47Z</time>
      </trkpt>
      <trkpt lat="44.10198" lon="7.1893">
        <ele>2125.2</ele>
        <time>2020-09-10T07:52:03Z</time>
      </trkpt>
      <trkpt lat="44.10207" lon="7.18931">
        <ele>2126.1</ele>
        <time>2020-09-10T07:52:21Z</time>
      </trkpt>
      <trkpt lat="44.10216" lon="7.18932">
        <ele>2127.3</ele>
        <time>2020-09-10T07:52:34Z</time>
      </trkpt>
      <trkpt lat="44.10225" lon="7.1893">
        <ele>2130.7</ele>
        <time>2020-09-10T07:52:59Z</time>
      </trkpt>
      <trkpt lat="44.10234" lon="7.1893">
        <ele>2131.2</ele>
        <time>2020-09-10T07:53:20Z</time>
      </trkpt>
      <trkpt lat="44.10243" lon="7.18925">
        <ele>2136.8</ele>
        <time>2020-09-10T07:53:47Z</time>
      </trkpt>
      <trkpt lat="44.10251" lon="7.18932">
        <ele>2139.2</ele>
        <time>2020-09-10T07:54:07Z</time>
      </trkpt>
      <trkpt lat="44.10259" lon="7.18935">
        <ele>2140.5</ele>
        <time>2020-09-10T07:54:27Z</time>
      </trkpt>
      <trkpt lat="44.10261" lon="7.18923">
        <ele>2145.9</ele>
        <time>2020-09-10T07:55:02Z</time>
      </trkpt>
      <trkpt lat="44.10269" lon="7.18928">
        <ele>2145.9</ele>
        <time>2020-09-10T07:55:25Z</time>
      </trkpt>
      <trkpt lat="44.10271" lon="7.18916">
        <ele>2149.7</ele>
        <time>2020-09-10T07:55:49Z</time>
      </trkpt>
      <trkpt lat="44.10267" lon="7.18904">
        <ele>2150.2</ele>
        <time>2020-09-10T07:56:10Z</time>
      </trkpt>
      <trkpt lat="44.10277" lon="7.18903">
        <ele>2156.6</ele>
        <time>2020-09-10T07:56:49Z</time>
      </trkpt>
      <trkpt lat="44.10286" lon="7.18905">
        <ele>2157.6</ele>
        <time>2020-09-10T07:57:16Z</time>
      </trkpt>
      <trkpt lat="44.10295" lon="7.18911">
        <ele>2160.2</ele>
        <time>2020-09-10T07:57:50Z</time>
      </trkpt>
      <trkpt lat="44.10303" lon="7.18906">
        <ele>2161.7</ele>
        <time>2020-09-10T07:58:04Z</time>
      </trkpt>
      <trkpt lat="44.10311" lon="7.18902">
        <ele>2164</ele>
        <time>2020-09-10T07:58:16Z</time>
      </trkpt>
      <trkpt lat="44.1032" lon="7.18898">
        <ele>2165.5</ele>
        <time>2020-09-10T07:58:32Z</time>
      </trkpt>
      <trkpt lat="44.10329" lon="7.18895">
        <ele>2168.6</ele>
        <time>2020-09-10T07:58:54Z</time>
      </trkpt>
      <trkpt lat="44.10338" lon="7.18895">
        <ele>2170.2</ele>
        <time>2020-09-10T07:59:11Z</time>
      </trkpt>
      <trkpt lat="44.10348" lon="7.18897">
        <ele>2171.2</ele>
        <time>2020-09-10T07:59:27Z</time>
      </trkpt>
      <trkpt lat="44.10357" lon="7.18896">
        <ele>2174.8</ele>
        <time>2020-09-10T07:59:43Z</time>
      </trkpt>
      <trkpt lat="44.10366" lon="7.18899">
        <ele>2177.8</ele>
        <time>2020-09-10T08:00:03Z</time>
      </trkpt>
      <trkpt lat="44.10374" lon="7.18892">
        <ele>2180.6</ele>
        <time>2020-09-10T08:00:31Z</time>
      </trkpt>
      <trkpt lat="44.10371" lon="7.18879">
        <ele>2181.8</ele>
        <time>2020-09-10T08:00:46Z</time>
      </trkpt>
      <trkpt lat="44.10367" lon="7.18868">
        <ele>2185.5</ele>
        <time>2020-09-10T08:01:01Z</time>
      </trkpt>
      <trkpt lat="44.10361" lon="7.18858">
        <ele>2187.4</ele>
        <time>2020-09-10T08:01:17Z</time>
      </trkpt>
      <trkpt lat="44.10354" lon="7.18849">
        <ele>2190.3</ele>
        <time>2020-09-10T08:01:37Z</time>
      </trkpt>
      <trkpt lat="44.10363" lon="7.18846">
        <ele>2192</ele>
        <time>2020-09-10T08:02:06Z</time>
      </trkpt>
      <trkpt lat="44.10373" lon="7.18844">
        <ele>2196.9</ele>
        <time>2020-09-10T08:02:28Z</time>
      </trkpt>
      <trkpt lat="44.10382" lon="7.18843">
        <ele>2198.9</ele>
        <time>2020-09-10T08:02:45Z</time>
      </trkpt>
      <trkpt lat="44.1039" lon="7.18836">
        <ele>2202.2</ele>
        <time>2020-09-10T08:03:16Z</time>
      </trkpt>
      <trkpt lat="44.10393" lon="7.18824">
        <ele>2206.2</ele>
        <time>2020-09-10T08:03:34Z</time>
      </trkpt>
      <trkpt lat="44.10388" lon="7.18813">
        <ele>2205.4</ele>
        <time>2020-09-10T08:09:02Z</time>
      </trkpt>
      <trkpt lat="44.10379" lon="7.18809">
        <ele>2207</ele>
        <time>2020-09-10T08:09:15Z</time>
      </trkpt>
      <trkpt lat="44.1037" lon="7.18804">
        <ele>2209.3</ele>
        <time>2020-09-10T08:09:29Z</time>
      </trkpt>
      <trkpt lat="44.10363" lon="7.18796">
        <ele>2211</ele>
        <time>2020-09-10T08:09:40Z</time>
      </trkpt>
      <trkpt lat="44.10357" lon="7.18786">
        <ele>2212.5</ele>
        <time>2020-09-10T08:09:52Z</time>
      </trkpt>
      <trkpt lat="44.10351" lon="7.18776">
        <ele>2213.2</ele>
        <time>2020-09-10T08:10:01Z</time>
      </trkpt>
      <trkpt lat="44.10345" lon="7.18766">
        <ele>2214.6</ele>
        <time>2020-09-10T08:10:15Z</time>
      </trkpt>
      <trkpt lat="44.10343" lon="7.18779">
        <ele>2214</ele>
        <time>2020-09-10T08:10:39Z</time>
      </trkpt>
      <trkpt lat="44.10352" lon="7.18785">
        <ele>2212.5</ele>
        <time>2020-09-10T08:11:02Z</time>
      </trkpt>
      <trkpt lat="44.10358" lon="7.18793">
        <ele>2211.8</ele>
        <time>2020-09-10T08:11:13Z</time>
      </trkpt>
      <trkpt lat="44.10367" lon="7.188">
        <ele>2210.2</ele>
        <time>2020-09-10T08:12:15Z</time>
      </trkpt>
      <trkpt lat="44.10375" lon="7.18806">
        <ele>2209</ele>
        <time>2020-09-10T08:12:27Z</time>
      </trkpt>
      <trkpt lat="44.10384" lon="7.18811">
        <ele>2207.9</ele>
        <time>2020-09-10T08:12:56Z</time>
      </trkpt>
      <trkpt lat="44.10392" lon="7.18817">
        <ele>2206.6</ele>
        <time>2020-09-10T08:13:12Z</time>
      </trkpt>
      <trkpt lat="44.10401" lon="7.18819">
        <ele>2205.7</ele>
        <time>2020-09-10T08:13:31Z</time>
      </trkpt>
      <trkpt lat="44.10411" lon="7.18822">
        <ele>2204.6</ele>
        <time>2020-09-10T08:13:42Z</time>
      </trkpt>
      <trkpt lat="44.1042" lon="7.18824">
        <ele>2203.1</ele>
        <time>2020-09-10T08:13:51Z</time>
      </trkpt>
      <trkpt lat="44.10429" lon="7.18825">
        <ele>2201.1</ele>
        <time>2020-09-10T08:14:01Z</time>
      </trkpt>
      <trkpt lat="44.10438" lon="7.1883">
        <ele>2199.5</ele>
        <time>2020-09-10T08:14:11Z</time>
      </trkpt>
      <trkpt lat="44.10447" lon="7.18833">
        <ele>2197.8</ele>
        <time>2020-09-10T08:14:22Z</time>
      </trkpt>
      <trkpt lat="44.10456" lon="7.18834">
        <ele>2196.2</ele>
        <time>2020-09-10T08:14:31Z</time>
      </trkpt>
      <trkpt lat="44.10466" lon="7.18838">
        <ele>2194.8</ele>
        <time>2020-09-10T08:14:42Z</time>
      </trkpt>
      <trkpt lat="44.10475" lon="7.18843">
        <ele>2193.4</ele>
        <time>2020-09-10T08:14:54Z</time>
      </trkpt>
      <trkpt lat="44.10484" lon="7.1885">
        <ele>2192.9</ele>
        <time>2020-09-10T08:15:05Z</time>
      </trkpt>
      <trkpt lat="44.10493" lon="7.18852">
        <ele>2192.7</ele>
        <time>2020-09-10T08:15:13Z</time>
      </trkpt>
      <trkpt lat="44.10501" lon="7.1886">
        <ele>2191.8</ele>
        <time>2020-09-10T08:15:22Z</time>
      </trkpt>
      <trkpt lat="44.10508" lon="7.18868">
        <ele>2192</ele>
        <time>2020-09-10T08:15:30Z</time>
      </trkpt>
      <trkpt lat="44.10516" lon="7.18874">
        <ele>2191.9</ele>
        <time>2020-09-10T08:15:39Z</time>
      </trkpt>
      <trkpt lat="44.10523" lon="7.18882">
        <ele>2192.6</ele>
        <time>2020-09-10T08:15:48Z</time>
      </trkpt>
      <trkpt lat="44.10531" lon="7.1889">
        <ele>2192.8</ele>
        <time>2020-09-10T08:15:58Z</time>
      </trkpt>
      <trkpt lat="44.10538" lon="7.18899">
        <ele>2193.2</ele>
        <time>2020-09-10T08:16:08Z</time>
      </trkpt>
      <trkpt lat="44.10546" lon="7.18907">
        <ele>2194.2</ele>
        <time>2020-09-10T08:16:19Z</time>
      </trkpt>
      <trkpt lat="44.10554" lon="7.18914">
        <ele>2195.4</ele>
        <time>2020-09-10T08:16:29Z</time>
      </trkpt>
      <trkpt lat="44.10563" lon="7.18919">
        <ele>2195.6</ele>
        <time>2020-09-10T08:16:42Z</time>
      </trkpt>
      <trkpt lat="44.10572" lon="7.18918">
        <ele>2196.5</ele>
        <time>2020-09-10T08:16:56Z</time>
      </trkpt>
      <trkpt lat="44.10581" lon="7.18916">
        <ele>2198.2</ele>
        <time>2020-09-10T08:17:09Z</time>
      </trkpt>
      <trkpt lat="44.1059" lon="7.18912">
        <ele>2198.8</ele>
        <time>2020-09-10T08:17:19Z</time>
      </trkpt>
      <trkpt lat="44.10599" lon="7.18909">
        <ele>2199.2</ele>
        <time>2020-09-10T08:17:29Z</time>
      </trkpt>
      <trkpt lat="44.10609" lon="7.18909">
        <ele>2198.3</ele>
        <time>2020-09-10T08:17:41Z</time>
      </trkpt>
      <trkpt lat="44.10619" lon="7.18909">
        <ele>2197</ele>
        <time>2020-09-10T08:17:51Z</time>
      </trkpt>
      <trkpt lat="44.10628" lon="7.18909">
        <ele>2194.8</ele>
        <time>2020-09-10T08:18:03Z</time>
      </trkpt>
      <trkpt lat="44.10637" lon="7.18906">
        <ele>2193.4</ele>
        <time>2020-09-10T08:18:15Z</time>
      </trkpt>
      <trkpt lat="44.10647" lon="7.18907">
        <ele>2191.8</ele>
        <time>2020-09-10T08:18:23Z</time>
      </trkpt>
      <trkpt lat="44.10656" lon="7.18909">
        <ele>2189.6</ele>
        <time>2020-09-10T08:18:32Z</time>
      </trkpt>
      <trkpt lat="44.10666" lon="7.18913">
        <ele>2189.5</ele>
        <time>2020-09-10T08:18:41Z</time>
      </trkpt>
      <trkpt lat="44.10675" lon="7.18915">
        <ele>2188</ele>
        <time>2020-09-10T08:18:52Z</time>
      </trkpt>
      <trkpt lat="44.10684" lon="7.18912">
        <ele>2188.5</ele>
        <time>2020-09-10T08:19:02Z</time>
      </trkpt>
      <trkpt lat="44.10692" lon="7.18905">
        <ele>2188.1</ele>
        <time>2020-09-10T08:19:11Z</time>
      </trkpt>
      <trkpt lat="44.10701" lon="7.18903">
        <ele>2189.4</ele>
        <time>2020-09-10T08:19:22Z</time>
      </trkpt>
      <trkpt lat="44.10711" lon="7.18899">
        <ele>2190.1</ele>
        <time>2020-09-10T08:19:33Z</time>
      </trkpt>
      <trkpt lat="44.1072" lon="7.18893">
        <ele>2190.9</ele>
        <time>2020-09-10T08:19:42Z</time>
      </trkpt>
      <trkpt lat="44.10729" lon="7.18891">
        <ele>2191.9</ele>
        <time>2020-09-10T08:19:52Z</time>
      </trkpt>
      <trkpt lat="44.10739" lon="7.1889">
        <ele>2192.6</ele>
        <time>2020-09-10T08:20:02Z</time>
      </trkpt>
      <trkpt lat="44.10748" lon="7.18885">
        <ele>2193.8</ele>
        <time>2020-09-10T08:20:14Z</time>
      </trkpt>
      <trkpt lat="44.10758" lon="7.18881">
        <ele>2194.4</ele>
        <time>2020-09-10T08:20:25Z</time>
      </trkpt>
      <trkpt lat="44.10767" lon="7.18883">
        <ele>2195</ele>
        <time>2020-09-10T08:20:35Z</time>
      </trkpt>
      <trkpt lat="44.10777" lon="7.18882">
        <ele>2195</ele>
        <time>2020-09-10T08:20:45Z</time>
      </trkpt>
      <trkpt lat="44.10786" lon="7.18883">
        <ele>2194.6</ele>
        <time>2020-09-10T08:20:53Z</time>
      </trkpt>
      <trkpt lat="44.10796" lon="7.18886">
        <ele>2195</ele>
        <time>2020-09-10T08:21:02Z</time>
      </trkpt>
      <trkpt lat="44.10806" lon="7.18888">
        <ele>2195</ele>
        <time>2020-09-10T08:21:12Z</time>
      </trkpt>
      <trkpt lat="44.10815" lon="7.18887">
        <ele>2195</ele>
        <time>2020-09-10T08:21:21Z</time>
      </trkpt>
      <trkpt lat="44.10824" lon="7.18889">
        <ele>2194.5</ele>
        <time>2020-09-10T08:21:29Z</time>
      </trkpt>
      <trkpt lat="44.10834" lon="7.1889">
        <ele>2193.8</ele>
        <time>2020-09-10T08:21:38Z</time>
      </trkpt>
      <trkpt lat="44.10843" lon="7.18893">
        <ele>2193.3</ele>
        <time>2020-09-10T08:21:47Z</time>
      </trkpt>
      <trkpt lat="44.10852" lon="7.18895">
        <ele>2192.9</ele>
        <time>2020-09-10T08:21:56Z</time>
      </trkpt>
      <trkpt lat="44.10862" lon="7.189">
        <ele>2193</ele>
        <time>2020-09-10T08:22:06Z</time>
      </trkpt>
      <trkpt lat="44.10871" lon="7.18904">
        <ele>2192.9</ele>
        <time>2020-09-10T08:22:15Z</time>
      </trkpt>
      <trkpt lat="44.10881" lon="7.18906">
        <ele>2192.7</ele>
        <time>2020-09-10T08:22:24Z</time>
      </trkpt>
      <trkpt lat="44.1089" lon="7.18905">
        <ele>2192.4</ele>
        <time>2020-09-10T08:22:33Z</time>
      </trkpt>
      <trkpt lat="44.109" lon="7.18904">
        <ele>2191.4</ele>
        <time>2020-09-10T08:22:43Z</time>
      </trkpt>
      <trkpt lat="44.10909" lon="7.18905">
        <ele>2190.4</ele>
        <time>2020-09-10T08:22:52Z</time>
      </trkpt>
      <trkpt lat="44.10919" lon="7.18907">
        <ele>2189.4</ele>
        <time>2020-09-10T08:23:01Z</time>
      </trkpt>
      <trkpt lat="44.10928" lon="7.1891">
        <ele>2188.3</ele>
        <time>2020-09-10T08:23:10Z</time>
      </trkpt>
      <trkpt lat="44.10936" lon="7.18917">
        <ele>2188.5</ele>
        <time>2020-09-10T08:23:19Z</time>
      </trkpt>
      <trkpt lat="44.10945" lon="7.18923">
        <ele>2190</ele>
        <time>2020-09-10T08:23:30Z</time>
      </trkpt>
      <trkpt lat="44.10955" lon="7.18925">
        <ele>2189.8</ele>
        <time>2020-09-10T08:23:42Z</time>
      </trkpt>
      <trkpt lat="44.10964" lon="7.18925">
        <ele>2189.7</ele>
        <time>2020-09-10T08:23:53Z</time>
      </trkpt>
      <trkpt lat="44.10972" lon="7.18931">
        <ele>2190.7</ele>
        <time>2020-09-10T08:24:07Z</time>
      </trkpt>
      <trkpt lat="44.10981" lon="7.18933">
        <ele>2190.5</ele>
        <time>2020-09-10T08:25:10Z</time>
      </trkpt>
      <trkpt lat="44.1099" lon="7.18936">
        <ele>2192.7</ele>
        <time>2020-09-10T08:25:26Z</time>
      </trkpt>
      <trkpt lat="44.10999" lon="7.18938">
        <ele>2194.6</ele>
        <time>2020-09-10T08:25:38Z</time>
      </trkpt>
      <trkpt lat="44.11008" lon="7.18938">
        <ele>2195.8</ele>
        <time>2020-09-10T08:25:48Z</time>
      </trkpt>
      <trkpt lat="44.11017" lon="7.1894">
        <ele>2196.1</ele>
        <time>2020-09-10T08:26:00Z</time>
      </trkpt>
      <trkpt lat="44.11027" lon="7.18944">
        <ele>2198.8</ele>
        <time>2020-09-10T08:26:13Z</time>
      </trkpt>
      <trkpt lat="44.11036" lon="7.18943">
        <ele>2200.7</ele>
        <time>2020-09-10T08:26:25Z</time>
      </trkpt>
      <trkpt lat="44.11046" lon="7.18941">
        <ele>2202.9</ele>
        <time>2020-09-10T08:26:40Z</time>
      </trkpt>
      <trkpt lat="44.11055" lon="7.18937">
        <ele>2205.3</ele>
        <time>2020-09-10T08:26:52Z</time>
      </trkpt>
      <trkpt lat="44.11063" lon="7.18933">
        <ele>2206.6</ele>
        <time>2020-09-10T08:27:04Z</time>
      </trkpt>
      <trkpt lat="44.11071" lon="7.18925">
        <ele>2208.3</ele>
        <time>2020-09-10T08:27:17Z</time>
      </trkpt>
      <trkpt lat="44.11079" lon="7.18917">
        <ele>2210.4</ele>
        <time>2020-09-10T08:27:29Z</time>
      </trkpt>
      <trkpt lat="44.11086" lon="7.1891">
        <ele>2211.8</ele>
        <time>2020-09-10T08:27:41Z</time>
      </trkpt>
      <trkpt lat="44.11095" lon="7.18903">
        <ele>2212.7</ele>
        <time>2020-09-10T08:27:55Z</time>
      </trkpt>
      <trkpt lat="44.11102" lon="7.18895">
        <ele>2215.2</ele>
        <time>2020-09-10T08:28:10Z</time>
      </trkpt>
      <trkpt lat="44.11111" lon="7.18891">
        <ele>2216.9</ele>
        <time>2020-09-10T08:28:25Z</time>
      </trkpt>
      <trkpt lat="44.11119" lon="7.18885">
        <ele>2219.2</ele>
        <time>2020-09-10T08:28:39Z</time>
      </trkpt>
      <trkpt lat="44.11128" lon="7.18881">
        <ele>2219.7</ele>
        <time>2020-09-10T08:28:51Z</time>
      </trkpt>
      <trkpt lat="44.11137" lon="7.18878">
        <ele>2222.6</ele>
        <time>2020-09-10T08:29:07Z</time>
      </trkpt>
      <trkpt lat="44.11146" lon="7.18873">
        <ele>2225.3</ele>
        <time>2020-09-10T08:29:21Z</time>
      </trkpt>
      <trkpt lat="44.11154" lon="7.18868">
        <ele>2226.6</ele>
        <time>2020-09-10T08:29:34Z</time>
      </trkpt>
      <trkpt lat="44.11163" lon="7.18863">
        <ele>2228.9</ele>
        <time>2020-09-10T08:29:50Z</time>
      </trkpt>
      <trkpt lat="44.11173" lon="7.18863">
        <ele>2230.2</ele>
        <time>2020-09-10T08:30:03Z</time>
      </trkpt>
      <trkpt lat="44.11181" lon="7.18866">
        <ele>2232.1</ele>
        <time>2020-09-10T08:30:13Z</time>
      </trkpt>
      <trkpt lat="44.11191" lon="7.18867">
        <ele>2232.4</ele>
        <time>2020-09-10T08:30:23Z</time>
      </trkpt>
      <trkpt lat="44.112" lon="7.18869">
        <ele>2232.9</ele>
        <time>2020-09-10T08:30:32Z</time>
      </trkpt>
      <trkpt lat="44.1121" lon="7.18869">
        <ele>2232.7</ele>
        <time>2020-09-10T08:30:42Z</time>
      </trkpt>
      <trkpt lat="44.11218" lon="7.18873">
        <ele>2233.3</ele>
        <time>2020-09-10T08:30:53Z</time>
      </trkpt>
      <trkpt lat="44.11223" lon="7.18884">
        <ele>2232.3</ele>
        <time>2020-09-10T08:31:40Z</time>
      </trkpt>
      <trkpt lat="44.11229" lon="7.18894">
        <ele>2234.6</ele>
        <time>2020-09-10T08:32:14Z</time>
      </trkpt>
      <trkpt lat="44.1123" lon="7.18906">
        <ele>2238.4</ele>
        <time>2020-09-10T08:32:38Z</time>
      </trkpt>
      <trkpt lat="44.11232" lon="7.18894">
        <ele>2237.7</ele>
        <time>2020-09-10T08:33:27Z</time>
      </trkpt>
      <trkpt lat="44.11231" lon="7.18881">
        <ele>2236.6</ele>
        <time>2020-09-10T08:33:39Z</time>
      </trkpt>
      <trkpt lat="44.11234" lon="7.18869">
        <ele>2235.5</ele>
        <time>2020-09-10T08:33:53Z</time>
      </trkpt>
      <trkpt lat="44.11238" lon="7.18857">
        <ele>2234.5</ele>
        <time>2020-09-10T08:36:50Z</time>
      </trkpt>
      <trkpt lat="44.11247" lon="7.18854">
        <ele>2232.8</ele>
        <time>2020-09-10T08:44:16Z</time>
      </trkpt>
      <trkpt lat="44.11256" lon="7.18852">
        <ele>2236</ele>
        <time>2020-09-10T08:44:32Z</time>
      </trkpt>
      <trkpt lat="44.11265" lon="7.18848">
        <ele>2235.5</ele>
        <time>2020-09-10T08:44:44Z</time>
      </trkpt>
      <trkpt lat="44.11272" lon="7.18839">
        <ele>2235.4</ele>
        <time>2020-09-10T08:44:55Z</time>
      </trkpt>
      <trkpt lat="44.11277" lon="7.18828">
        <ele>2236.3</ele>
        <time>2020-09-10T08:45:05Z</time>
      </trkpt>
      <trkpt lat="44.1128" lon="7.18816">
        <ele>2236.6</ele>
        <time>2020-09-10T08:45:13Z</time>
      </trkpt>
      <trkpt lat="44.11287" lon="7.18808">
        <ele>2235.5</ele>
        <time>2020-09-10T08:45:24Z</time>
      </trkpt>
      <trkpt lat="44.11297" lon="7.18804">
        <ele>2236.4</ele>
        <time>2020-09-10T08:45:34Z</time>
      </trkpt>
      <trkpt lat="44.11306" lon="7.18801">
        <ele>2236.8</ele>
        <time>2020-09-10T08:45:45Z</time>
      </trkpt>
      <trkpt lat="44.11315" lon="7.18797">
        <ele>2237.9</ele>
        <time>2020-09-10T08:45:56Z</time>
      </trkpt>
      <trkpt lat="44.11324" lon="7.18793">
        <ele>2239.8</ele>
        <time>2020-09-10T08:46:08Z</time>
      </trkpt>
      <trkpt lat="44.11334" lon="7.18791">
        <ele>2241.3</ele>
        <time>2020-09-10T08:46:20Z</time>
      </trkpt>
      <trkpt lat="44.11343" lon="7.18789">
        <ele>2242.5</ele>
        <time>2020-09-10T08:46:32Z</time>
      </trkpt>
      <trkpt lat="44.11352" lon="7.18786">
        <ele>2244</ele>
        <time>2020-09-10T08:46:49Z</time>
      </trkpt>
      <trkpt lat="44.11362" lon="7.18786">
        <ele>2244.9</ele>
        <time>2020-09-10T08:47:03Z</time>
      </trkpt>
      <trkpt lat="44.1137" lon="7.18791">
        <ele>2246.1</ele>
        <time>2020-09-10T08:47:16Z</time>
      </trkpt>
      <trkpt lat="44.1138" lon="7.18796">
        <ele>2248.6</ele>
        <time>2020-09-10T08:47:30Z</time>
      </trkpt>
      <trkpt lat="44.11388" lon="7.18801">
        <ele>2251.4</ele>
        <time>2020-09-10T08:47:45Z</time>
      </trkpt>
      <trkpt lat="44.11396" lon="7.18808">
        <ele>2254.8</ele>
        <time>2020-09-10T08:48:02Z</time>
      </trkpt>
      <trkpt lat="44.11404" lon="7.18814">
        <ele>2257.3</ele>
        <time>2020-09-10T08:48:41Z</time>
      </trkpt>
      <trkpt lat="44.1141" lon="7.18824">
        <ele>2257.9</ele>
        <time>2020-09-10T08:48:57Z</time>
      </trkpt>
      <trkpt lat="44.11417" lon="7.18832">
        <ele>2260</ele>
        <time>2020-09-10T08:49:14Z</time>
      </trkpt>
      <trkpt lat="44.11422" lon="7.18844">
        <ele>2262.1</ele>
        <time>2020-09-10T08:49:32Z</time>
      </trkpt>
      <trkpt lat="44.11426" lon="7.18856">
        <ele>2262.1</ele>
        <time>2020-09-10T08:49:51Z</time>
      </trkpt>
      <trkpt lat="44.11427" lon="7.18869">
        <ele>2262.3</ele>
        <time>2020-09-10T08:50:05Z</time>
      </trkpt>
      <trkpt lat="44.11427" lon="7.18881">
        <ele>2264.1</ele>
        <time>2020-09-10T08:50:20Z</time>
      </trkpt>
      <trkpt lat="44.11428" lon="7.18895">
        <ele>2267</ele>
        <time>2020-09-10T08:50:44Z</time>
      </trkpt>
      <trkpt lat="44.11426" lon="7.18907">
        <ele>2267.8</ele>
        <time>2020-09-10T08:51:02Z</time>
      </trkpt>
      <trkpt lat="44.11424" lon="7.1892">
        <ele>2269.6</ele>
        <time>2020-09-10T08:51:19Z</time>
      </trkpt>
      <trkpt lat="44.11422" lon="7.18932">
        <ele>2272.1</ele>
        <time>2020-09-10T08:52:08Z</time>
      </trkpt>
      <trkpt lat="44.1142" lon="7.18945">
        <ele>2272.6</ele>
        <time>2020-09-10T08:52:25Z</time>
      </trkpt>
      <trkpt lat="44.11423" lon="7.18957">
        <ele>2274.6</ele>
        <time>2020-09-10T08:52:39Z</time>
      </trkpt>
      <trkpt lat="44.11425" lon="7.1897">
        <ele>2275.6</ele>
        <time>2020-09-10T08:52:55Z</time>
      </trkpt>
      <trkpt lat="44.11428" lon="7.18983">
        <ele>2278.5</ele>
        <time>2020-09-10T08:53:12Z</time>
      </trkpt>
      <trkpt lat="44.1143" lon="7.18996">
        <ele>2278.2</ele>
        <time>2020-09-10T08:53:27Z</time>
      </trkpt>
      <trkpt lat="44.11435" lon="7.19007">
        <ele>2283.7</ele>
        <time>2020-09-10T08:53:46Z</time>
      </trkpt>
      <trkpt lat="44.11442" lon="7.19016">
        <ele>2285.6</ele>
        <time>2020-09-10T08:54:08Z</time>
      </trkpt>
      <trkpt lat="44.11448" lon="7.19025">
        <ele>2290.8</ele>
        <time>2020-09-10T08:54:39Z</time>
      </trkpt>
      <trkpt lat="44.11455" lon="7.19034">
        <ele>2296.5</ele>
        <time>2020-09-10T08:55:06Z</time>
      </trkpt>
      <trkpt lat="44.11454" lon="7.19047">
        <ele>2298.1</ele>
        <time>2020-09-10T08:55:30Z</time>
      </trkpt>
      <trkpt lat="44.11459" lon="7.19059">
        <ele>2302.8</ele>
        <time>2020-09-10T08:56:37Z</time>
      </trkpt>
      <trkpt lat="44.11461" lon="7.19071">
        <ele>2307.6</ele>
        <time>2020-09-10T08:58:54Z</time>
      </trkpt>
      <trkpt lat="44.11464" lon="7.19083">
        <ele>2309.1</ele>
        <time>2020-09-10T08:59:55Z</time>
      </trkpt>
      <trkpt lat="44.11459" lon="7.19094">
        <ele>2309</ele>
        <time>2020-09-10T09:00:06Z</time>
      </trkpt>
      <trkpt lat="44.1145" lon="7.19095">
        <ele>2311.3</ele>
        <time>2020-09-10T09:00:58Z</time>
      </trkpt>
      <trkpt lat="44.11455" lon="7.19105">
        <ele>2310.3</ele>
        <time>2020-09-10T09:01:25Z</time>
      </trkpt>
      <trkpt lat="44.11452" lon="7.19118">
        <ele>2310.6</ele>
        <time>2020-09-10T09:01:37Z</time>
      </trkpt>
      <trkpt lat="44.11446" lon="7.19128">
        <ele>2310.4</ele>
        <time>2020-09-10T09:01:48Z</time>
      </trkpt>
      <trkpt lat="44.11443" lon="7.19139">
        <ele>2314.5</ele>
        <time>2020-09-10T09:02:08Z</time>
      </trkpt>
      <trkpt lat="44.11446" lon="7.19151">
        <ele>2315</ele>
        <time>2020-09-10T09:02:28Z</time>
      </trkpt>
      <trkpt lat="44.11444" lon="7.19138">
        <ele>2314.8</ele>
        <time>2020-09-10T09:05:15Z</time>
      </trkpt>
      <trkpt lat="44.11447" lon="7.19126">
        <ele>2313.7</ele>
        <time>2020-09-10T09:05:25Z</time>
      </trkpt>
      <trkpt lat="44.11451" lon="7.19115">
        <ele>2312.5</ele>
        <time>2020-09-10T09:05:35Z</time>
      </trkpt>
      <trkpt lat="44.11457" lon="7.19105">
        <ele>2311.7</ele>
        <time>2020-09-10T09:05:49Z</time>
      </trkpt>
      <trkpt lat="44.1146" lon="7.19093">
        <ele>2311.2</ele>
        <time>2020-09-10T09:05:59Z</time>
      </trkpt>
      <trkpt lat="44.11465" lon="7.19081">
        <ele>2311</ele>
        <time>2020-09-10T09:06:13Z</time>
      </trkpt>
      <trkpt lat="44.11459" lon="7.19092">
        <ele>2309.7</ele>
        <time>2020-09-10T09:08:56Z</time>
      </trkpt>
      <trkpt lat="44.11461" lon="7.19105">
        <ele>2310.4</ele>
        <time>2020-09-10T09:09:09Z</time>
      </trkpt>
      <trkpt lat="44.11464" lon="7.19118">
        <ele>2311.1</ele>
        <time>2020-09-10T09:09:20Z</time>
      </trkpt>
      <trkpt lat="44.11467" lon="7.19131">
        <ele>2311.2</ele>
        <time>2020-09-10T09:09:30Z</time>
      </trkpt>
      <trkpt lat="44.11475" lon="7.19139">
        <ele>2311</ele>
        <time>2020-09-10T09:09:42Z</time>
      </trkpt>
      <trkpt lat="44.11483" lon="7.19143">
        <ele>2310.5</ele>
        <time>2020-09-10T09:09:57Z</time>
      </trkpt>
      <trkpt lat="44.1149" lon="7.19151">
        <ele>2311</ele>
        <time>2020-09-10T09:10:13Z</time>
      </trkpt>
      <trkpt lat="44.11493" lon="7.19165">
        <ele>2313.3</ele>
        <time>2020-09-10T09:10:39Z</time>
      </trkpt>
      <trkpt lat="44.11488" lon="7.19176">
        <ele>2313.9</ele>
        <time>2020-09-10T09:10:49Z</time>
      </trkpt>
      <trkpt lat="44.11485" lon="7.19189">
        <ele>2313.8</ele>
        <time>2020-09-10T09:11:00Z</time>
      </trkpt>
      <trkpt lat="44.11481" lon="7.192">
        <ele>2314.1</ele>
        <time>2020-09-10T09:11:12Z</time>
      </trkpt>
      <trkpt lat="44.11475" lon="7.1921">
        <ele>2313.6</ele>
        <time>2020-09-10T09:11:23Z</time>
      </trkpt>
      <trkpt lat="44.1147" lon="7.19221">
        <ele>2312.7</ele>
        <time>2020-09-10T09:11:36Z</time>
      </trkpt>
      <trkpt lat="44.11463" lon="7.19231">
        <ele>2312.9</ele>
        <time>2020-09-10T09:11:47Z</time>
      </trkpt>
      <trkpt lat="44.11456" lon="7.1924">
        <ele>2313.2</ele>
        <time>2020-09-10T09:11:58Z</time>
      </trkpt>
      <trkpt lat="44.11449" lon="7.19247">
        <ele>2313.9</ele>
        <time>2020-09-10T09:12:13Z</time>
      </trkpt>
      <trkpt lat="44.11441" lon="7.19255">
        <ele>2315.2</ele>
        <time>2020-09-10T09:12:27Z</time>
      </trkpt>
      <trkpt lat="44.11432" lon="7.19259">
        <ele>2316.5</ele>
        <time>2020-09-10T09:12:39Z</time>
      </trkpt>
      <trkpt lat="44.11423" lon="7.19263">
        <ele>2317.3</ele>
        <time>2020-09-10T09:12:50Z</time>
      </trkpt>
      <trkpt lat="44.11417" lon="7.19274">
        <ele>2318.6</ele>
        <time>2020-09-10T09:13:02Z</time>
      </trkpt>
      <trkpt lat="44.11412" lon="7.19285">
        <ele>2319</ele>
        <time>2020-09-10T09:13:14Z</time>
      </trkpt>
      <trkpt lat="44.11407" lon="7.19296">
        <ele>2318.8</ele>
        <time>2020-09-10T09:13:25Z</time>
      </trkpt>
      <trkpt lat="44.11405" lon="7.19308">
        <ele>2318.4</ele>
        <time>2020-09-10T09:13:46Z</time>
      </trkpt>
      <trkpt lat="44.11404" lon="7.19321">
        <ele>2318.3</ele>
        <time>2020-09-10T09:14:21Z</time>
      </trkpt>
      <trkpt lat="44.11408" lon="7.19333">
        <ele>2317.7</ele>
        <time>2020-09-10T09:14:32Z</time>
      </trkpt>
      <trkpt lat="44.11408" lon="7.19346">
        <ele>2318.6</ele>
        <time>2020-09-10T09:14:44Z</time>
      </trkpt>
      <trkpt lat="44.11407" lon="7.19359">
        <ele>2317.4</ele>
        <time>2020-09-10T09:15:08Z</time>
      </trkpt>
      <trkpt lat="44.11399" lon="7.19366">
        <ele>2316.7</ele>
        <time>2020-09-10T09:15:31Z</time>
      </trkpt>
      <trkpt lat="44.1139" lon="7.19368">
        <ele>2319.1</ele>
        <time>2020-09-10T09:15:57Z</time>
      </trkpt>
      <trkpt lat="44.11381" lon="7.19371">
        <ele>2322</ele>
        <time>2020-09-10T09:16:24Z</time>
      </trkpt>
      <trkpt lat="44.11373" lon="7.19378">
        <ele>2321.9</ele>
        <time>2020-09-10T09:16:34Z</time>
      </trkpt>
      <trkpt lat="44.11367" lon="7.19388">
        <ele>2322.7</ele>
        <time>2020-09-10T09:16:52Z</time>
      </trkpt>
      <trkpt lat="44.11362" lon="7.19399">
        <ele>2321.9</ele>
        <time>2020-09-10T09:17:13Z</time>
      </trkpt>
      <trkpt lat="44.11363" lon="7.19411">
        <ele>2320.4</ele>
        <time>2020-09-10T09:17:27Z</time>
      </trkpt>
      <trkpt lat="44.11364" lon="7.19424">
        <ele>2318.4</ele>
        <time>2020-09-10T09:17:53Z</time>
      </trkpt>
      <trkpt lat="44.11366" lon="7.19437">
        <ele>2318.1</ele>
        <time>2020-09-10T09:18:09Z</time>
      </trkpt>
      <trkpt lat="44.11373" lon="7.19446">
        <ele>2318.9</ele>
        <time>2020-09-10T09:18:22Z</time>
      </trkpt>
      <trkpt lat="44.11379" lon="7.19455">
        <ele>2320.1</ele>
        <time>2020-09-10T09:18:35Z</time>
      </trkpt>
      <trkpt lat="44.11389" lon="7.1946">
        <ele>2321.4</ele>
        <time>2020-09-10T09:18:52Z</time>
      </trkpt>
      <trkpt lat="44.11398" lon="7.19458">
        <ele>2322.7</ele>
        <time>2020-09-10T09:19:11Z</time>
      </trkpt>
      <trkpt lat="44.11407" lon="7.19457">
        <ele>2325.7</ele>
        <time>2020-09-10T09:19:34Z</time>
      </trkpt>
      <trkpt lat="44.11417" lon="7.19459">
        <ele>2326.3</ele>
        <time>2020-09-10T09:19:50Z</time>
      </trkpt>
      <trkpt lat="44.11426" lon="7.19459">
        <ele>2329.6</ele>
        <time>2020-09-10T09:20:08Z</time>
      </trkpt>
      <trkpt lat="44.11434" lon="7.19453">
        <ele>2332</ele>
        <time>2020-09-10T09:20:30Z</time>
      </trkpt>
      <trkpt lat="44.11443" lon="7.19447">
        <ele>2333.4</ele>
        <time>2020-09-10T09:20:46Z</time>
      </trkpt>
      <trkpt lat="44.11452" lon="7.19446">
        <ele>2334.7</ele>
        <time>2020-09-10T09:21:00Z</time>
      </trkpt>
      <trkpt lat="44.11462" lon="7.19443">
        <ele>2336</ele>
        <time>2020-09-10T09:21:14Z</time>
      </trkpt>
      <trkpt lat="44.1147" lon="7.19437">
        <ele>2337.4</ele>
        <time>2020-09-10T09:21:28Z</time>
      </trkpt>
      <trkpt lat="44.11477" lon="7.19429">
        <ele>2339.7</ele>
        <time>2020-09-10T09:21:48Z</time>
      </trkpt>
      <trkpt lat="44.11485" lon="7.19423">
        <ele>2341.4</ele>
        <time>2020-09-10T09:22:05Z</time>
      </trkpt>
      <trkpt lat="44.11495" lon="7.1942">
        <ele>2346.1</ele>
        <time>2020-09-10T09:22:31Z</time>
      </trkpt>
      <trkpt lat="44.11505" lon="7.19421">
        <ele>2347.5</ele>
        <time>2020-09-10T09:22:48Z</time>
      </trkpt>
      <trkpt lat="44.11514" lon="7.19421">
        <ele>2349.1</ele>
        <time>2020-09-10T09:23:02Z</time>
      </trkpt>
      <trkpt lat="44.11523" lon="7.1942">
        <ele>2349.7</ele>
        <time>2020-09-10T09:23:13Z</time>
      </trkpt>
      <trkpt lat="44.11533" lon="7.19421">
        <ele>2349.8</ele>
        <time>2020-09-10T09:23:28Z</time>
      </trkpt>
      <trkpt lat="44.11542" lon="7.19426">
        <ele>2351.4</ele>
        <time>2020-09-10T09:23:43Z</time>
      </trkpt>
      <trkpt lat="44.1155" lon="7.19432">
        <ele>2352.4</ele>
        <time>2020-09-10T09:24:00Z</time>
      </trkpt>
      <trkpt lat="44.11556" lon="7.19441">
        <ele>2352.8</ele>
        <time>2020-09-10T09:24:20Z</time>
      </trkpt>
      <trkpt lat="44.11554" lon="7.19454">
        <ele>2354.8</ele>
        <time>2020-09-10T09:25:01Z</time>
      </trkpt>
      <trkpt lat="44.11562" lon="7.19447">
        <ele>2353.3</ele>
        <time>2020-09-10T09:25:35Z</time>
      </trkpt>
      <trkpt lat="44.1157" lon="7.19452">
        <ele>2351.5</ele>
        <time>2020-09-10T09:28:02Z</time>
      </trkpt>
      <trkpt lat="44.11579" lon="7.19459">
        <ele>2351.4</ele>
        <time>2020-09-10T09:28:17Z</time>
      </trkpt>
      <trkpt lat="44.11587" lon="7.19466">
        <ele>2351.6</ele>
        <time>2020-09-10T09:28:28Z</time>
      </trkpt>
      <trkpt lat="44.11595" lon="7.19471">
        <ele>2352.3</ele>
        <time>2020-09-10T09:28:38Z</time>
      </trkpt>
      <trkpt lat="44.11604" lon="7.19477">
        <ele>2352.9</ele>
        <time>2020-09-10T09:28:51Z</time>
      </trkpt>
      <trkpt lat="44.11613" lon="7.19483">
        <ele>2353.8</ele>
        <time>2020-09-10T09:29:07Z</time>
      </trkpt>
      <trkpt lat="44.11622" lon="7.19485">
        <ele>2355</ele>
        <time>2020-09-10T09:29:20Z</time>
      </trkpt>
      <trkpt lat="44.11631" lon="7.19487">
        <ele>2355.3</ele>
        <time>2020-09-10T09:29:38Z</time>
      </trkpt>
      <trkpt lat="44.1164" lon="7.19489">
        <ele>2359.4</ele>
        <time>2020-09-10T09:30:03Z</time>
      </trkpt>
      <trkpt lat="44.11649" lon="7.19489">
        <ele>2360.3</ele>
        <time>2020-09-10T09:30:23Z</time>
      </trkpt>
      <trkpt lat="44.11658" lon="7.19491">
        <ele>2362.8</ele>
        <time>2020-09-10T09:30:45Z</time>
      </trkpt>
      <trkpt lat="44.11667" lon="7.1949">
        <ele>2364.4</ele>
        <time>2020-09-10T09:31:11Z</time>
      </trkpt>
      <trkpt lat="44.11676" lon="7.19495">
        <ele>2366.4</ele>
        <time>2020-09-10T09:31:56Z</time>
      </trkpt>
      <trkpt lat="44.11685" lon="7.19498">
        <ele>2368.5</ele>
        <time>2020-09-10T09:32:14Z</time>
      </trkpt>
      <trkpt lat="44.11694" lon="7.19501">
        <ele>2369.1</ele>
        <time>2020-09-10T09:32:30Z</time>
      </trkpt>
      <trkpt lat="44.11703" lon="7.19499">
        <ele>2371.5</ele>
        <time>2020-09-10T09:32:49Z</time>
      </trkpt>
      <trkpt lat="44.11712" lon="7.19504">
        <ele>2374.6</ele>
        <time>2020-09-10T09:33:10Z</time>
      </trkpt>
      <trkpt lat="44.1172" lon="7.19509">
        <ele>2379.3</ele>
        <time>2020-09-10T09:33:41Z</time>
      </trkpt>
      <trkpt lat="44.1172" lon="7.19522">
        <ele>2381</ele>
        <time>2020-09-10T09:34:01Z</time>
      </trkpt>
      <trkpt lat="44.1172" lon="7.19536">
        <ele>2383.1</ele>
        <time>2020-09-10T09:34:16Z</time>
      </trkpt>
      <trkpt lat="44.11722" lon="7.19549">
        <ele>2384.2</ele>
        <time>2020-09-10T09:34:28Z</time>
      </trkpt>
      <trkpt lat="44.11719" lon="7.1956">
        <ele>2384.7</ele>
        <time>2020-09-10T09:34:44Z</time>
      </trkpt>
      <trkpt lat="44.11714" lon="7.19571">
        <ele>2383.9</ele>
        <time>2020-09-10T09:35:01Z</time>
      </trkpt>
      <trkpt lat="44.11714" lon="7.19584">
        <ele>2386.8</ele>
        <time>2020-09-10T09:35:16Z</time>
      </trkpt>
      <trkpt lat="44.11713" lon="7.19597">
        <ele>2388.7</ele>
        <time>2020-09-10T09:35:32Z</time>
      </trkpt>
      <trkpt lat="44.11707" lon="7.19606">
        <ele>2390.2</ele>
        <time>2020-09-10T09:35:46Z</time>
      </trkpt>
      <trkpt lat="44.11711" lon="7.19619">
        <ele>2389.7</ele>
        <time>2020-09-10T09:36:45Z</time>
      </trkpt>
      <trkpt lat="44.11719" lon="7.19622">
        <ele>2392.1</ele>
        <time>2020-09-10T09:37:28Z</time>
      </trkpt>
      <trkpt lat="44.11729" lon="7.19622">
        <ele>2391.5</ele>
        <time>2020-09-10T09:38:05Z</time>
      </trkpt>
      <trkpt lat="44.11738" lon="7.19625">
        <ele>2392.7</ele>
        <time>2020-09-10T09:38:17Z</time>
      </trkpt>
      <trkpt lat="44.11747" lon="7.1963">
        <ele>2393.6</ele>
        <time>2020-09-10T09:38:29Z</time>
      </trkpt>
      <trkpt lat="44.11755" lon="7.19636">
        <ele>2394.7</ele>
        <time>2020-09-10T09:38:44Z</time>
      </trkpt>
      <trkpt lat="44.11763" lon="7.19642">
        <ele>2393.3</ele>
        <time>2020-09-10T09:39:01Z</time>
      </trkpt>
      <trkpt lat="44.1177" lon="7.1965">
        <ele>2398.2</ele>
        <time>2020-09-10T09:39:21Z</time>
      </trkpt>
      <trkpt lat="44.11777" lon="7.1966">
        <ele>2398.9</ele>
        <time>2020-09-10T09:39:34Z</time>
      </trkpt>
      <trkpt lat="44.11781" lon="7.19672">
        <ele>2399.5</ele>
        <time>2020-09-10T09:39:47Z</time>
      </trkpt>
      <trkpt lat="44.11786" lon="7.19682">
        <ele>2400.4</ele>
        <time>2020-09-10T09:39:58Z</time>
      </trkpt>
      <trkpt lat="44.1179" lon="7.19694">
        <ele>2401.6</ele>
        <time>2020-09-10T09:40:13Z</time>
      </trkpt>
      <trkpt lat="44.11789" lon="7.19707">
        <ele>2401.9</ele>
        <time>2020-09-10T09:40:25Z</time>
      </trkpt>
      <trkpt lat="44.11794" lon="7.19719">
        <ele>2403.1</ele>
        <time>2020-09-10T09:40:34Z</time>
      </trkpt>
      <trkpt lat="44.11794" lon="7.19733">
        <ele>2403.1</ele>
        <time>2020-09-10T09:40:45Z</time>
      </trkpt>
      <trkpt lat="44.11792" lon="7.19745">
        <ele>2404.1</ele>
        <time>2020-09-10T09:40:57Z</time>
      </trkpt>
      <trkpt lat="44.11792" lon="7.19758">
        <ele>2405.8</ele>
        <time>2020-09-10T09:41:11Z</time>
      </trkpt>
      <trkpt lat="44.11797" lon="7.19769">
        <ele>2407.2</ele>
        <time>2020-09-10T09:41:47Z</time>
      </trkpt>
      <trkpt lat="44.11802" lon="7.19759">
        <ele>2412.7</ele>
        <time>2020-09-10T09:42:17Z</time>
      </trkpt>
      <trkpt lat="44.11804" lon="7.19771">
        <ele>2414.9</ele>
        <time>2020-09-10T09:42:38Z</time>
      </trkpt>
      <trkpt lat="44.11803" lon="7.19784">
        <ele>2417.2</ele>
        <time>2020-09-10T09:42:58Z</time>
      </trkpt>
      <trkpt lat="44.118" lon="7.19797">
        <ele>2418</ele>
        <time>2020-09-10T09:43:32Z</time>
      </trkpt>
      <trkpt lat="44.11799" lon="7.1981">
        <ele>2418.2</ele>
        <time>2020-09-10T09:43:49Z</time>
      </trkpt>
      <trkpt lat="44.11798" lon="7.19823">
        <ele>2419.4</ele>
        <time>2020-09-10T09:44:08Z</time>
      </trkpt>
      <trkpt lat="44.11795" lon="7.19836">
        <ele>2420.9</ele>
        <time>2020-09-10T09:44:21Z</time>
      </trkpt>
      <trkpt lat="44.11793" lon="7.19849">
        <ele>2423.4</ele>
        <time>2020-09-10T09:44:50Z</time>
      </trkpt>
      <trkpt lat="44.1179" lon="7.19861">
        <ele>2426.3</ele>
        <time>2020-09-10T09:45:04Z</time>
      </trkpt>
      <trkpt lat="44.11787" lon="7.19874">
        <ele>2427.5</ele>
        <time>2020-09-10T09:45:14Z</time>
      </trkpt>
      <trkpt lat="44.1178" lon="7.19882">
        <ele>2428.4</ele>
        <time>2020-09-10T09:45:25Z</time>
      </trkpt>
      <trkpt lat="44.11776" lon="7.19894">
        <ele>2427.9</ele>
        <time>2020-09-10T09:45:39Z</time>
      </trkpt>
      <trkpt lat="44.11776" lon="7.19906">
        <ele>2429.2</ele>
        <time>2020-09-10T09:45:52Z</time>
      </trkpt>
      <trkpt lat="44.11772" lon="7.1992">
        <ele>2431.8</ele>
        <time>2020-09-10T09:46:05Z</time>
      </trkpt>
      <trkpt lat="44.11768" lon="7.19932">
        <ele>2432.7</ele>
        <time>2020-09-10T09:46:17Z</time>
      </trkpt>
      <trkpt lat="44.11765" lon="7.19944">
        <ele>2434.3</ele>
        <time>2020-09-10T09:46:33Z</time>
      </trkpt>
      <trkpt lat="44.11763" lon="7.19957">
        <ele>2436.3</ele>
        <time>2020-09-10T09:46:49Z</time>
      </trkpt>
      <trkpt lat="44.11771" lon="7.19963">
        <ele>2440.3</ele>
        <time>2020-09-10T09:47:40Z</time>
      </trkpt>
      <trkpt lat="44.11766" lon="7.19974">
        <ele>2443.8</ele>
        <time>2020-09-10T09:48:10Z</time>
      </trkpt>
      <trkpt lat="44.1176" lon="7.19983">
        <ele>2443.4</ele>
        <time>2020-09-10T09:48:25Z</time>
      </trkpt>
      <trkpt lat="44.11754" lon="7.19993">
        <ele>2445.2</ele>
        <time>2020-09-10T09:48:52Z</time>
      </trkpt>
      <trkpt lat="44.11751" lon="7.20006">
        <ele>2446.8</ele>
        <time>2020-09-10T09:49:04Z</time>
      </trkpt>
      <trkpt lat="44.11745" lon="7.20015">
        <ele>2445.9</ele>
        <time>2020-09-10T09:49:13Z</time>
      </trkpt>
      <trkpt lat="44.11739" lon="7.20026">
        <ele>2446.4</ele>
        <time>2020-09-10T09:49:22Z</time>
      </trkpt>
      <trkpt lat="44.11736" lon="7.20039">
        <ele>2446.6</ele>
        <time>2020-09-10T09:49:29Z</time>
      </trkpt>
      <trkpt lat="44.11734" lon="7.20052">
        <ele>2446.2</ele>
        <time>2020-09-10T09:49:39Z</time>
      </trkpt>
      <trkpt lat="44.11729" lon="7.20063">
        <ele>2448.1</ele>
        <time>2020-09-10T09:49:48Z</time>
      </trkpt>
      <trkpt lat="44.11724" lon="7.20074">
        <ele>2449</ele>
        <time>2020-09-10T09:49:57Z</time>
      </trkpt>
      <trkpt lat="44.11718" lon="7.20084">
        <ele>2448.9</ele>
        <time>2020-09-10T09:50:08Z</time>
      </trkpt>
      <trkpt lat="44.11712" lon="7.20094">
        <ele>2450</ele>
        <time>2020-09-10T09:50:20Z</time>
      </trkpt>
      <trkpt lat="44.11709" lon="7.20107">
        <ele>2450.2</ele>
        <time>2020-09-10T09:51:10Z</time>
      </trkpt>
      <trkpt lat="44.11707" lon="7.20119">
        <ele>2450.4</ele>
        <time>2020-09-10T09:52:39Z</time>
      </trkpt>
      <trkpt lat="44.11699" lon="7.20123">
        <ele>2450</ele>
        <time>2020-09-10T09:54:34Z</time>
      </trkpt>
      <trkpt lat="44.11708" lon="7.20121">
        <ele>2449.4</ele>
        <time>2020-09-10T09:55:42Z</time>
      </trkpt>
      <trkpt lat="44.11699" lon="7.20124">
        <ele>2450.1</ele>
        <time>2020-09-10T09:59:07Z</time>
      </trkpt>
      <trkpt lat="44.11693" lon="7.20134">
        <ele>2451.2</ele>
        <time>2020-09-10T09:59:55Z</time>
      </trkpt>
      <trkpt lat="44.11684" lon="7.20141">
        <ele>2453.1</ele>
        <time>2020-09-10T10:00:12Z</time>
      </trkpt>
      <trkpt lat="44.11677" lon="7.20148">
        <ele>2455.2</ele>
        <time>2020-09-10T10:00:28Z</time>
      </trkpt>
      <trkpt lat="44.11669" lon="7.20154">
        <ele>2457.4</ele>
        <time>2020-09-10T10:00:46Z</time>
      </trkpt>
      <trkpt lat="44.1166" lon="7.20156">
        <ele>2460.3</ele>
        <time>2020-09-10T10:01:11Z</time>
      </trkpt>
      <trkpt lat="44.11654" lon="7.20166">
        <ele>2461.2</ele>
        <time>2020-09-10T10:01:37Z</time>
      </trkpt>
      <trkpt lat="44.1165" lon="7.20178">
        <ele>2462.5</ele>
        <time>2020-09-10T10:02:00Z</time>
      </trkpt>
      <trkpt lat="44.11647" lon="7.2019">
        <ele>2463.9</ele>
        <time>2020-09-10T10:02:15Z</time>
      </trkpt>
      <trkpt lat="44.1164" lon="7.20198">
        <ele>2467.9</ele>
        <time>2020-09-10T10:02:46Z</time>
      </trkpt>
      <trkpt lat="44.11631" lon="7.20203">
        <ele>2467</ele>
        <time>2020-09-10T10:03:02Z</time>
      </trkpt>
      <trkpt lat="44.11624" lon="7.20212">
        <ele>2468.4</ele>
        <time>2020-09-10T10:03:48Z</time>
      </trkpt>
      <trkpt lat="44.11615" lon="7.20215">
        <ele>2469.7</ele>
        <time>2020-09-10T10:04:02Z</time>
      </trkpt>
      <trkpt lat="44.11607" lon="7.2022">
        <ele>2473.2</ele>
        <time>2020-09-10T10:04:23Z</time>
      </trkpt>
      <trkpt lat="44.11597" lon="7.20223">
        <ele>2475.5</ele>
        <time>2020-09-10T10:04:42Z</time>
      </trkpt>
      <trkpt lat="44.11589" lon="7.2023">
        <ele>2477.7</ele>
        <time>2020-09-10T10:05:04Z</time>
      </trkpt>
      <trkpt lat="44.11581" lon="7.20235">
        <ele>2480.2</ele>
        <time>2020-09-10T10:05:22Z</time>
      </trkpt>
      <trkpt lat="44.11574" lon="7.20244">
        <ele>2483.7</ele>
        <time>2020-09-10T10:05:46Z</time>
      </trkpt>
      <trkpt lat="44.11567" lon="7.20253">
        <ele>2486.9</ele>
        <time>2020-09-10T10:06:22Z</time>
      </trkpt>
      <trkpt lat="44.11559" lon="7.20258">
        <ele>2490.8</ele>
        <time>2020-09-10T10:06:49Z</time>
      </trkpt>
      <trkpt lat="44.1155" lon="7.20263">
        <ele>2493.5</ele>
        <time>2020-09-10T10:07:10Z</time>
      </trkpt>
      <trkpt lat="44.11541" lon="7.20267">
        <ele>2495.4</ele>
        <time>2020-09-10T10:07:38Z</time>
      </trkpt>
      <trkpt lat="44.11534" lon="7.20274">
        <ele>2494.9</ele>
        <time>2020-09-10T10:08:09Z</time>
      </trkpt>
      <trkpt lat="44.11527" lon="7.20283">
        <ele>2500.9</ele>
        <time>2020-09-10T10:08:50Z</time>
      </trkpt>
      <trkpt lat="44.11518" lon="7.20284">
        <ele>2506</ele>
        <time>2020-09-10T10:09:14Z</time>
      </trkpt>
      <trkpt lat="44.11509" lon="7.20285">
        <ele>2510.4</ele>
        <time>2020-09-10T10:09:48Z</time>
      </trkpt>
      <trkpt lat="44.11504" lon="7.20296">
        <ele>2514.2</ele>
        <time>2020-09-10T10:10:27Z</time>
      </trkpt>
      <trkpt lat="44.115" lon="7.20307">
        <ele>2524.4</ele>
        <time>2020-09-10T10:11:41Z</time>
      </trkpt>
      <trkpt lat="44.1149" lon="7.20308">
        <ele>2525.8</ele>
        <time>2020-09-10T10:12:18Z</time>
      </trkpt>
      <trkpt lat="44.11482" lon="7.20311">
        <ele>2528.7</ele>
        <time>2020-09-10T10:12:49Z</time>
      </trkpt>
      <trkpt lat="44.11473" lon="7.20315">
        <ele>2534.4</ele>
        <time>2020-09-10T10:13:21Z</time>
      </trkpt>
      <trkpt lat="44.11464" lon="7.20313">
        <ele>2539.3</ele>
        <time>2020-09-10T10:13:54Z</time>
      </trkpt>
      <trkpt lat="44.11455" lon="7.20315">
        <ele>2542</ele>
        <time>2020-09-10T10:14:25Z</time>
      </trkpt>
      <trkpt lat="44.11446" lon="7.20316">
        <ele>2547.6</ele>
        <time>2020-09-10T10:15:14Z</time>
      </trkpt>
      <trkpt lat="44.11437" lon="7.20318">
        <ele>2551.1</ele>
        <time>2020-09-10T10:15:39Z</time>
      </trkpt>
      <trkpt lat="44.11428" lon="7.20315">
        <ele>2553</ele>
        <time>2020-09-10T10:15:57Z</time>
      </trkpt>
      <trkpt lat="44.11419" lon="7.20316">
        <ele>2555.4</ele>
        <time>2020-09-10T10:16:22Z</time>
      </trkpt>
      <trkpt lat="44.1141" lon="7.20313">
        <ele>2559.8</ele>
        <time>2020-09-10T10:16:49Z</time>
      </trkpt>
      <trkpt lat="44.11401" lon="7.20317">
        <ele>2563.1</ele>
        <time>2020-09-10T10:18:21Z</time>
      </trkpt>
      <trkpt lat="44.11393" lon="7.20311">
        <ele>2566.7</ele>
        <time>2020-09-10T10:18:44Z</time>
      </trkpt>
      <trkpt lat="44.11383" lon="7.20311">
        <ele>2567</ele>
        <time>2020-09-10T10:18:56Z</time>
      </trkpt>
      <trkpt lat="44.1138" lon="7.20322">
        <ele>2573.4</ele>
        <time>2020-09-10T10:19:31Z</time>
      </trkpt>
      <trkpt lat="44.11371" lon="7.20322">
        <ele>2576.8</ele>
        <time>2020-09-10T10:22:57Z</time>
      </trkpt>
      <trkpt lat="44.11362" lon="7.20325">
        <ele>2579.3</ele>
        <time>2020-09-10T10:23:12Z</time>
      </trkpt>
      <trkpt lat="44.11353" lon="7.20328">
        <ele>2580.6</ele>
        <time>2020-09-10T10:23:28Z</time>
      </trkpt>
      <trkpt lat="44.11344" lon="7.20327">
        <ele>2581.3</ele>
        <time>2020-09-10T10:23:53Z</time>
      </trkpt>
      <trkpt lat="44.11334" lon="7.20326">
        <ele>2580.3</ele>
        <time>2020-09-10T10:24:11Z</time>
      </trkpt>
      <trkpt lat="44.11326" lon="7.20322">
        <ele>2582.8</ele>
        <time>2020-09-10T10:24:34Z</time>
      </trkpt>
      <trkpt lat="44.11317" lon="7.20319">
        <ele>2584.6</ele>
        <time>2020-09-10T10:24:49Z</time>
      </trkpt>
      <trkpt lat="44.11307" lon="7.20317">
        <ele>2584.9</ele>
        <time>2020-09-10T10:25:01Z</time>
      </trkpt>
      <trkpt lat="44.11298" lon="7.20317">
        <ele>2585.3</ele>
        <time>2020-09-10T10:25:14Z</time>
      </trkpt>
      <trkpt lat="44.11289" lon="7.20316">
        <ele>2586.7</ele>
        <time>2020-09-10T10:25:29Z</time>
      </trkpt>
      <trkpt lat="44.1128" lon="7.20315">
        <ele>2588.5</ele>
        <time>2020-09-10T10:25:44Z</time>
      </trkpt>
      <trkpt lat="44.11285" lon="7.20305">
        <ele>2591.9</ele>
        <time>2020-09-10T10:26:19Z</time>
      </trkpt>
      <trkpt lat="44.11283" lon="7.20293">
        <ele>2597.3</ele>
        <time>2020-09-10T10:26:59Z</time>
      </trkpt>
      <trkpt lat="44.11274" lon="7.20287">
        <ele>2600.2</ele>
        <time>2020-09-10T10:27:29Z</time>
      </trkpt>
      <trkpt lat="44.11279" lon="7.20276">
        <ele>2604.2</ele>
        <time>2020-09-10T10:27:58Z</time>
      </trkpt>
      <trkpt lat="44.11277" lon="7.20263">
        <ele>2606</ele>
        <time>2020-09-10T10:30:14Z</time>
      </trkpt>
      <trkpt lat="44.11273" lon="7.20251">
        <ele>2610.3</ele>
        <time>2020-09-10T10:31:01Z</time>
      </trkpt>
      <trkpt lat="44.11265" lon="7.20244">
        <ele>2612.9</ele>
        <time>2020-09-10T10:31:21Z</time>
      </trkpt>
      <trkpt lat="44.11256" lon="7.20247">
        <ele>2615.8</ele>
        <time>2020-09-10T10:31:42Z</time>
      </trkpt>
      <trkpt lat="44.11248" lon="7.20243">
        <ele>2620.1</ele>
        <time>2020-09-10T10:32:14Z</time>
      </trkpt>
      <trkpt lat="44.11238" lon="7.20245">
        <ele>2623</ele>
        <time>2020-09-10T10:32:40Z</time>
      </trkpt>
      <trkpt lat="44.11228" lon="7.20246">
        <ele>2624.4</ele>
        <time>2020-09-10T10:32:59Z</time>
      </trkpt>
      <trkpt lat="44.11219" lon="7.20245">
        <ele>2627.9</ele>
        <time>2020-09-10T10:33:21Z</time>
      </trkpt>
      <trkpt lat="44.11223" lon="7.20234">
        <ele>2629.7</ele>
        <time>2020-09-10T10:33:43Z</time>
      </trkpt>
      <trkpt lat="44.11226" lon="7.20222">
        <ele>2632.1</ele>
        <time>2020-09-10T10:34:02Z</time>
      </trkpt>
      <trkpt lat="44.11217" lon="7.2022">
        <ele>2638.1</ele>
        <time>2020-09-10T10:34:33Z</time>
      </trkpt>
      <trkpt lat="44.11208" lon="7.20219">
        <ele>2636.5</ele>
        <time>2020-09-10T10:36:32Z</time>
      </trkpt>
      <trkpt lat="44.11199" lon="7.20223">
        <ele>2640.7</ele>
        <time>2020-09-10T10:36:58Z</time>
      </trkpt>
      <trkpt lat="44.1119" lon="7.20225">
        <ele>2641.4</ele>
        <time>2020-09-10T10:37:10Z</time>
      </trkpt>
      <trkpt lat="44.11181" lon="7.20227">
        <ele>2641.8</ele>
        <time>2020-09-10T10:37:21Z</time>
      </trkpt>
      <trkpt lat="44.11171" lon="7.20227">
        <ele>2642.7</ele>
        <time>2020-09-10T10:37:34Z</time>
      </trkpt>
      <trkpt lat="44.11162" lon="7.2023">
        <ele>2643.2</ele>
        <time>2020-09-10T10:37:44Z</time>
      </trkpt>
      <trkpt lat="44.11152" lon="7.2023">
        <ele>2643.2</ele>
        <time>2020-09-10T10:38:02Z</time>
      </trkpt>
      <trkpt lat="44.11143" lon="7.20229">
        <ele>2643.7</ele>
        <time>2020-09-10T10:38:13Z</time>
      </trkpt>
      <trkpt lat="44.11133" lon="7.20229">
        <ele>2645.2</ele>
        <time>2020-09-10T10:38:27Z</time>
      </trkpt>
      <trkpt lat="44.11124" lon="7.20231">
        <ele>2648.2</ele>
        <time>2020-09-10T10:38:47Z</time>
      </trkpt>
      <trkpt lat="44.11116" lon="7.20224">
        <ele>2651.6</ele>
        <time>2020-09-10T10:39:04Z</time>
      </trkpt>
      <trkpt lat="44.11107" lon="7.20227">
        <ele>2654.4</ele>
        <time>2020-09-10T10:39:20Z</time>
      </trkpt>
      <trkpt lat="44.11098" lon="7.20227">
        <ele>2658.3</ele>
        <time>2020-09-10T10:39:45Z</time>
      </trkpt>
      <trkpt lat="44.11089" lon="7.20225">
        <ele>2660.5</ele>
        <time>2020-09-10T10:40:01Z</time>
      </trkpt>
      <trkpt lat="44.1108" lon="7.20221">
        <ele>2660</ele>
        <time>2020-09-10T10:40:38Z</time>
      </trkpt>
      <trkpt lat="44.11071" lon="7.20219">
        <ele>2663.5</ele>
        <time>2020-09-10T10:40:56Z</time>
      </trkpt>
      <trkpt lat="44.11063" lon="7.20214">
        <ele>2666.9</ele>
        <time>2020-09-10T10:41:12Z</time>
      </trkpt>
      <trkpt lat="44.11054" lon="7.20213">
        <ele>2668.7</ele>
        <time>2020-09-10T10:41:48Z</time>
      </trkpt>
      <trkpt lat="44.11046" lon="7.20219">
        <ele>2672.6</ele>
        <time>2020-09-10T10:47:13Z</time>
      </trkpt>
      <trkpt lat="44.11055" lon="7.20219">
        <ele>2671.9</ele>
        <time>2020-09-10T10:48:21Z</time>
      </trkpt>
      <trkpt lat="44.11051" lon="7.2023">
        <ele>2673.9</ele>
        <time>2020-09-10T10:57:55Z</time>
      </trkpt>
      <trkpt lat="44.11057" lon="7.20221">
        <ele>2681.2</ele>
        <time>2020-09-10T11:10:49Z</time>
      </trkpt>
      <trkpt lat="44.11049" lon="7.20217">
        <ele>2681.9</ele>
        <time>2020-09-10T11:15:12Z</time>
      </trkpt>
      <trkpt lat="44.11057" lon="7.20224">
        <ele>2681.7</ele>
        <time>2020-09-10T11:16:51Z</time>
      </trkpt>
      <trkpt lat="44.11066" lon="7.20229">
        <ele>2682.7</ele>
        <time>2020-09-10T11:21:51Z</time>
      </trkpt>
      <trkpt lat="44.11075" lon="7.20226">
        <ele>2681.6</ele>
        <time>2020-09-10T11:22:08Z</time>
      </trkpt>
      <trkpt lat="44.11084" lon="7.20228">
        <ele>2679.9</ele>
        <time>2020-09-10T11:22:24Z</time>
      </trkpt>
      <trkpt lat="44.11093" lon="7.20228">
        <ele>2677.7</ele>
        <time>2020-09-10T11:22:37Z</time>
      </trkpt>
      <trkpt lat="44.11102" lon="7.20227">
        <ele>2675.8</ele>
        <time>2020-09-10T11:22:56Z</time>
      </trkpt>
      <trkpt lat="44.11111" lon="7.20223">
        <ele>2674.1</ele>
        <time>2020-09-10T11:23:10Z</time>
      </trkpt>
      <trkpt lat="44.11119" lon="7.20228">
        <ele>2671.2</ele>
        <time>2020-09-10T11:23:28Z</time>
      </trkpt>
      <trkpt lat="44.11129" lon="7.20226">
        <ele>2668.3</ele>
        <time>2020-09-10T11:23:43Z</time>
      </trkpt>
      <trkpt lat="44.11138" lon="7.20228">
        <ele>2666.1</ele>
        <time>2020-09-10T11:23:55Z</time>
      </trkpt>
      <trkpt lat="44.11147" lon="7.20231">
        <ele>2664</ele>
        <time>2020-09-10T11:24:08Z</time>
      </trkpt>
      <trkpt lat="44.11157" lon="7.2023">
        <ele>2662.2</ele>
        <time>2020-09-10T11:24:18Z</time>
      </trkpt>
      <trkpt lat="44.11167" lon="7.20229">
        <ele>2662.3</ele>
        <time>2020-09-10T11:24:32Z</time>
      </trkpt>
      <trkpt lat="44.11176" lon="7.20229">
        <ele>2662.3</ele>
        <time>2020-09-10T11:24:42Z</time>
      </trkpt>
      <trkpt lat="44.11186" lon="7.20227">
        <ele>2661.1</ele>
        <time>2020-09-10T11:24:59Z</time>
      </trkpt>
      <trkpt lat="44.11195" lon="7.20224">
        <ele>2661.2</ele>
        <time>2020-09-10T11:25:10Z</time>
      </trkpt>
      <trkpt lat="44.11204" lon="7.20222">
        <ele>2660.7</ele>
        <time>2020-09-10T11:25:23Z</time>
      </trkpt>
      <trkpt lat="44.11213" lon="7.20222">
        <ele>2659.3</ele>
        <time>2020-09-10T11:25:37Z</time>
      </trkpt>
      <trkpt lat="44.11222" lon="7.20221">
        <ele>2656.1</ele>
        <time>2020-09-10T11:25:58Z</time>
      </trkpt>
      <trkpt lat="44.11221" lon="7.20234">
        <ele>2653.1</ele>
        <time>2020-09-10T11:26:15Z</time>
      </trkpt>
      <trkpt lat="44.11214" lon="7.20242">
        <ele>2651.1</ele>
        <time>2020-09-10T11:26:28Z</time>
      </trkpt>
      <trkpt lat="44.11222" lon="7.20246">
        <ele>2648</ele>
        <time>2020-09-10T11:26:46Z</time>
      </trkpt>
      <trkpt lat="44.11232" lon="7.20246">
        <ele>2645.2</ele>
        <time>2020-09-10T11:27:01Z</time>
      </trkpt>
      <trkpt lat="44.11241" lon="7.20243">
        <ele>2643.1</ele>
        <time>2020-09-10T11:27:13Z</time>
      </trkpt>
      <trkpt lat="44.11249" lon="7.20247">
        <ele>2639.2</ele>
        <time>2020-09-10T11:27:43Z</time>
      </trkpt>
      <trkpt lat="44.11258" lon="7.20244">
        <ele>2636.3</ele>
        <time>2020-09-10T11:27:59Z</time>
      </trkpt>
      <trkpt lat="44.11267" lon="7.20246">
        <ele>2633.5</ele>
        <time>2020-09-10T11:28:16Z</time>
      </trkpt>
      <trkpt lat="44.11273" lon="7.20256">
        <ele>2630.6</ele>
        <time>2020-09-10T11:28:39Z</time>
      </trkpt>
      <trkpt lat="44.11278" lon="7.20267">
        <ele>2628.5</ele>
        <time>2020-09-10T11:28:55Z</time>
      </trkpt>
      <trkpt lat="44.11278" lon="7.20279">
        <ele>2624.1</ele>
        <time>2020-09-10T11:29:33Z</time>
      </trkpt>
      <trkpt lat="44.11271" lon="7.20287">
        <ele>2623.2</ele>
        <time>2020-09-10T11:30:47Z</time>
      </trkpt>
      <trkpt lat="44.11279" lon="7.20292">
        <ele>2620</ele>
        <time>2020-09-10T11:31:06Z</time>
      </trkpt>
      <trkpt lat="44.11288" lon="7.20296">
        <ele>2617</ele>
        <time>2020-09-10T11:31:22Z</time>
      </trkpt>
      <trkpt lat="44.11282" lon="7.20306">
        <ele>2614.2</ele>
        <time>2020-09-10T11:31:37Z</time>
      </trkpt>
      <trkpt lat="44.11286" lon="7.20318">
        <ele>2609.7</ele>
        <time>2020-09-10T11:32:00Z</time>
      </trkpt>
      <trkpt lat="44.11295" lon="7.20318">
        <ele>2608.1</ele>
        <time>2020-09-10T11:32:11Z</time>
      </trkpt>
      <trkpt lat="44.11305" lon="7.20318">
        <ele>2606</ele>
        <time>2020-09-10T11:32:28Z</time>
      </trkpt>
      <trkpt lat="44.11314" lon="7.20318">
        <ele>2604.6</ele>
        <time>2020-09-10T11:32:39Z</time>
      </trkpt>
      <trkpt lat="44.11323" lon="7.20324">
        <ele>2603.9</ele>
        <time>2020-09-10T11:32:49Z</time>
      </trkpt>
      <trkpt lat="44.11332" lon="7.20329">
        <ele>2602.3</ele>
        <time>2020-09-10T11:32:59Z</time>
      </trkpt>
      <trkpt lat="44.11341" lon="7.20328">
        <ele>2599.5</ele>
        <time>2020-09-10T11:33:10Z</time>
      </trkpt>
      <trkpt lat="44.11351" lon="7.20328">
        <ele>2600.7</ele>
        <time>2020-09-10T11:33:22Z</time>
      </trkpt>
      <trkpt lat="44.1136" lon="7.20326">
        <ele>2600.3</ele>
        <time>2020-09-10T11:33:34Z</time>
      </trkpt>
      <trkpt lat="44.11369" lon="7.20322">
        <ele>2598.9</ele>
        <time>2020-09-10T11:33:52Z</time>
      </trkpt>
      <trkpt lat="44.11377" lon="7.20327">
        <ele>2596.4</ele>
        <time>2020-09-10T11:34:15Z</time>
      </trkpt>
      <trkpt lat="44.11385" lon="7.20318">
        <ele>2593.3</ele>
        <time>2020-09-10T11:35:22Z</time>
      </trkpt>
      <trkpt lat="44.11394" lon="7.20316">
        <ele>2587.8</ele>
        <time>2020-09-10T11:35:53Z</time>
      </trkpt>
      <trkpt lat="44.11402" lon="7.20322">
        <ele>2585.5</ele>
        <time>2020-09-10T11:36:08Z</time>
      </trkpt>
      <trkpt lat="44.1141" lon="7.20317">
        <ele>2581.1</ele>
        <time>2020-09-10T11:36:45Z</time>
      </trkpt>
      <trkpt lat="44.11419" lon="7.20319">
        <ele>2577.8</ele>
        <time>2020-09-10T11:37:08Z</time>
      </trkpt>
      <trkpt lat="44.11428" lon="7.20321">
        <ele>2575.1</ele>
        <time>2020-09-10T11:37:35Z</time>
      </trkpt>
      <trkpt lat="44.11438" lon="7.20325">
        <ele>2573.1</ele>
        <time>2020-09-10T11:37:52Z</time>
      </trkpt>
      <trkpt lat="44.11447" lon="7.20323">
        <ele>2570.2</ele>
        <time>2020-09-10T11:38:10Z</time>
      </trkpt>
      <trkpt lat="44.11455" lon="7.20319">
        <ele>2563.2</ele>
        <time>2020-09-10T11:38:48Z</time>
      </trkpt>
      <trkpt lat="44.11465" lon="7.20319">
        <ele>2560.6</ele>
        <time>2020-09-10T11:39:04Z</time>
      </trkpt>
      <trkpt lat="44.11474" lon="7.20318">
        <ele>2557.5</ele>
        <time>2020-09-10T11:39:20Z</time>
      </trkpt>
      <trkpt lat="44.11483" lon="7.20319">
        <ele>2553.8</ele>
        <time>2020-09-10T11:39:52Z</time>
      </trkpt>
      <trkpt lat="44.11492" lon="7.20314">
        <ele>2549.9</ele>
        <time>2020-09-10T11:40:09Z</time>
      </trkpt>
      <trkpt lat="44.11501" lon="7.20314">
        <ele>2547</ele>
        <time>2020-09-10T11:40:23Z</time>
      </trkpt>
      <trkpt lat="44.11497" lon="7.20303">
        <ele>2544.5</ele>
        <time>2020-09-10T11:40:39Z</time>
      </trkpt>
      <trkpt lat="44.11505" lon="7.20297">
        <ele>2538.4</ele>
        <time>2020-09-10T11:41:32Z</time>
      </trkpt>
      <trkpt lat="44.11514" lon="7.20292">
        <ele>2532.8</ele>
        <time>2020-09-10T11:42:01Z</time>
      </trkpt>
      <trkpt lat="44.11523" lon="7.20288">
        <ele>2528.4</ele>
        <time>2020-09-10T11:42:25Z</time>
      </trkpt>
      <trkpt lat="44.11531" lon="7.20281">
        <ele>2524</ele>
        <time>2020-09-10T11:42:47Z</time>
      </trkpt>
      <trkpt lat="44.11539" lon="7.20275">
        <ele>2521.3</ele>
        <time>2020-09-10T11:43:02Z</time>
      </trkpt>
      <trkpt lat="44.11546" lon="7.20267">
        <ele>2518.4</ele>
        <time>2020-09-10T11:43:50Z</time>
      </trkpt>
      <trkpt lat="44.11556" lon="7.20266">
        <ele>2516.6</ele>
        <time>2020-09-10T11:44:03Z</time>
      </trkpt>
      <trkpt lat="44.11563" lon="7.20258">
        <ele>2513.9</ele>
        <time>2020-09-10T11:44:15Z</time>
      </trkpt>
      <trkpt lat="44.11572" lon="7.20252">
        <ele>2510.5</ele>
        <time>2020-09-10T11:44:30Z</time>
      </trkpt>
      <trkpt lat="44.11581" lon="7.20247">
        <ele>2507</ele>
        <time>2020-09-10T11:44:44Z</time>
      </trkpt>
      <trkpt lat="44.11589" lon="7.2024">
        <ele>2504.9</ele>
        <time>2020-09-10T11:44:54Z</time>
      </trkpt>
      <trkpt lat="44.11595" lon="7.20231">
        <ele>2502.1</ele>
        <time>2020-09-10T11:45:08Z</time>
      </trkpt>
      <trkpt lat="44.11605" lon="7.20229">
        <ele>2499.2</ele>
        <time>2020-09-10T11:45:22Z</time>
      </trkpt>
      <trkpt lat="44.11613" lon="7.20222">
        <ele>2496.7</ele>
        <time>2020-09-10T11:45:36Z</time>
      </trkpt>
      <trkpt lat="44.11622" lon="7.20219">
        <ele>2495.5</ele>
        <time>2020-09-10T11:45:44Z</time>
      </trkpt>
      <trkpt lat="44.11628" lon="7.20209">
        <ele>2494.1</ele>
        <time>2020-09-10T11:45:55Z</time>
      </trkpt>
      <trkpt lat="44.11633" lon="7.20199">
        <ele>2491.8</ele>
        <time>2020-09-10T11:48:03Z</time>
      </trkpt>
      <trkpt lat="44.11642" lon="7.20192">
        <ele>2490.4</ele>
        <time>2020-09-10T11:48:53Z</time>
      </trkpt>
      <trkpt lat="44.11649" lon="7.20184">
        <ele>2488.5</ele>
        <time>2020-09-10T11:49:14Z</time>
      </trkpt>
      <trkpt lat="44.11655" lon="7.20175">
        <ele>2486.9</ele>
        <time>2020-09-10T11:49:37Z</time>
      </trkpt>
      <trkpt lat="44.11662" lon="7.20167">
        <ele>2485.6</ele>
        <time>2020-09-10T11:49:59Z</time>
      </trkpt>
      <trkpt lat="44.1167" lon="7.20161">
        <ele>2483.1</ele>
        <time>2020-09-10T11:50:14Z</time>
      </trkpt>
      <trkpt lat="44.11678" lon="7.20155">
        <ele>2481.6</ele>
        <time>2020-09-10T11:50:27Z</time>
      </trkpt>
      <trkpt lat="44.11686" lon="7.20149">
        <ele>2479.3</ele>
        <time>2020-09-10T11:50:40Z</time>
      </trkpt>
      <trkpt lat="44.11694" lon="7.20141">
        <ele>2477.3</ele>
        <time>2020-09-10T11:50:52Z</time>
      </trkpt>
      <trkpt lat="44.11701" lon="7.20131">
        <ele>2476.2</ele>
        <time>2020-09-10T11:51:05Z</time>
      </trkpt>
      <trkpt lat="44.11707" lon="7.20121">
        <ele>2473.5</ele>
        <time>2020-09-10T11:52:57Z</time>
      </trkpt>
      <trkpt lat="44.11713" lon="7.2011">
        <ele>2473</ele>
        <time>2020-09-10T11:53:09Z</time>
      </trkpt>
      <trkpt lat="44.11719" lon="7.20099">
        <ele>2473.3</ele>
        <time>2020-09-10T11:53:23Z</time>
      </trkpt>
      <trkpt lat="44.11723" lon="7.20087">
        <ele>2472.6</ele>
        <time>2020-09-10T11:53:34Z</time>
      </trkpt>
      <trkpt lat="44.11727" lon="7.20076">
        <ele>2472.2</ele>
        <time>2020-09-10T11:53:44Z</time>
      </trkpt>
      <trkpt lat="44.11733" lon="7.20065">
        <ele>2472</ele>
        <time>2020-09-10T11:53:55Z</time>
      </trkpt>
      <trkpt lat="44.11736" lon="7.20053">
        <ele>2471.2</ele>
        <time>2020-09-10T11:54:06Z</time>
      </trkpt>
      <trkpt lat="44.1174" lon="7.20041">
        <ele>2469.8</ele>
        <time>2020-09-10T11:54:23Z</time>
      </trkpt>
      <trkpt lat="44.11744" lon="7.20029">
        <ele>2469.3</ele>
        <time>2020-09-10T11:54:32Z</time>
      </trkpt>
      <trkpt lat="44.11749" lon="7.20019">
        <ele>2469.3</ele>
        <time>2020-09-10T11:54:41Z</time>
      </trkpt>
      <trkpt lat="44.11751" lon="7.20007">
        <ele>2469.3</ele>
        <time>2020-09-10T11:54:50Z</time>
      </trkpt>
      <trkpt lat="44.11756" lon="7.19995">
        <ele>2470.2</ele>
        <time>2020-09-10T11:55:00Z</time>
      </trkpt>
      <trkpt lat="44.11759" lon="7.19983">
        <ele>2468.1</ele>
        <time>2020-09-10T11:55:22Z</time>
      </trkpt>
      <trkpt lat="44.11765" lon="7.19974">
        <ele>2464.6</ele>
        <time>2020-09-10T11:56:00Z</time>
      </trkpt>
      <trkpt lat="44.11766" lon="7.19961">
        <ele>2461.6</ele>
        <time>2020-09-10T11:56:20Z</time>
      </trkpt>
      <trkpt lat="44.11767" lon="7.19948">
        <ele>2459.6</ele>
        <time>2020-09-10T11:56:33Z</time>
      </trkpt>
      <trkpt lat="44.1177" lon="7.19936">
        <ele>2457.7</ele>
        <time>2020-09-10T11:56:42Z</time>
      </trkpt>
      <trkpt lat="44.11774" lon="7.19924">
        <ele>2455.9</ele>
        <time>2020-09-10T11:56:54Z</time>
      </trkpt>
      <trkpt lat="44.11776" lon="7.19912">
        <ele>2455.3</ele>
        <time>2020-09-10T11:57:09Z</time>
      </trkpt>
      <trkpt lat="44.11778" lon="7.19898">
        <ele>2453.5</ele>
        <time>2020-09-10T11:57:22Z</time>
      </trkpt>
      <trkpt lat="44.11783" lon="7.19886">
        <ele>2451.2</ele>
        <time>2020-09-10T11:57:33Z</time>
      </trkpt>
      <trkpt lat="44.11788" lon="7.19875">
        <ele>2451.1</ele>
        <time>2020-09-10T11:58:08Z</time>
      </trkpt>
      <trkpt lat="44.11793" lon="7.19863">
        <ele>2450.6</ele>
        <time>2020-09-10T11:58:20Z</time>
      </trkpt>
      <trkpt lat="44.11796" lon="7.19849">
        <ele>2448.9</ele>
        <time>2020-09-10T11:58:33Z</time>
      </trkpt>
      <trkpt lat="44.11798" lon="7.19836">
        <ele>2446.8</ele>
        <time>2020-09-10T11:58:45Z</time>
      </trkpt>
      <trkpt lat="44.11801" lon="7.19824">
        <ele>2444.6</ele>
        <time>2020-09-10T11:58:59Z</time>
      </trkpt>
      <trkpt lat="44.11801" lon="7.19811">
        <ele>2443</ele>
        <time>2020-09-10T11:59:08Z</time>
      </trkpt>
      <trkpt lat="44.11804" lon="7.19798">
        <ele>2441.9</ele>
        <time>2020-09-10T11:59:16Z</time>
      </trkpt>
      <trkpt lat="44.11806" lon="7.19785">
        <ele>2441.6</ele>
        <time>2020-09-10T11:59:26Z</time>
      </trkpt>
      <trkpt lat="44.11808" lon="7.19773">
        <ele>2439.4</ele>
        <time>2020-09-10T11:59:39Z</time>
      </trkpt>
      <trkpt lat="44.11806" lon="7.1976">
        <ele>2437.6</ele>
        <time>2020-09-10T11:59:50Z</time>
      </trkpt>
      <trkpt lat="44.11799" lon="7.19769">
        <ele>2434.8</ele>
        <time>2020-09-10T12:00:06Z</time>
      </trkpt>
      <trkpt lat="44.11797" lon="7.19756">
        <ele>2429.9</ele>
        <time>2020-09-10T12:00:36Z</time>
      </trkpt>
      <trkpt lat="44.11798" lon="7.19743">
        <ele>2427.8</ele>
        <time>2020-09-10T12:01:36Z</time>
      </trkpt>
      <trkpt lat="44.1179" lon="7.19748">
        <ele>2426.5</ele>
        <time>2020-09-10T12:03:07Z</time>
      </trkpt>
      <trkpt lat="44.11793" lon="7.19736">
        <ele>2424.1</ele>
        <time>2020-09-10T12:04:47Z</time>
      </trkpt>
      <trkpt lat="44.11793" lon="7.19722">
        <ele>2423.4</ele>
        <time>2020-09-10T12:06:02Z</time>
      </trkpt>
      <trkpt lat="44.11791" lon="7.1971">
        <ele>2422.5</ele>
        <time>2020-09-10T12:06:10Z</time>
      </trkpt>
      <trkpt lat="44.11795" lon="7.19698">
        <ele>2422.1</ele>
        <time>2020-09-10T12:06:25Z</time>
      </trkpt>
      <trkpt lat="44.11792" lon="7.19686">
        <ele>2420.9</ele>
        <time>2020-09-10T12:06:34Z</time>
      </trkpt>
      <trkpt lat="44.11788" lon="7.19674">
        <ele>2420.2</ele>
        <time>2020-09-10T12:06:40Z</time>
      </trkpt>
      <trkpt lat="44.11784" lon="7.19663">
        <ele>2418.9</ele>
        <time>2020-09-10T12:06:49Z</time>
      </trkpt>
      <trkpt lat="44.11778" lon="7.19652">
        <ele>2417.9</ele>
        <time>2020-09-10T12:06:57Z</time>
      </trkpt>
      <trkpt lat="44.11772" lon="7.19642">
        <ele>2416.9</ele>
        <time>2020-09-10T12:07:05Z</time>
      </trkpt>
      <trkpt lat="44.11763" lon="7.19636">
        <ele>2415.2</ele>
        <time>2020-09-10T12:07:14Z</time>
      </trkpt>
      <trkpt lat="44.11755" lon="7.19629">
        <ele>2414.1</ele>
        <time>2020-09-10T12:07:24Z</time>
      </trkpt>
      <trkpt lat="44.11747" lon="7.19625">
        <ele>2413.1</ele>
        <time>2020-09-10T12:07:32Z</time>
      </trkpt>
      <trkpt lat="44.11737" lon="7.1962">
        <ele>2412.3</ele>
        <time>2020-09-10T12:07:40Z</time>
      </trkpt>
      <trkpt lat="44.11729" lon="7.19613">
        <ele>2411.9</ele>
        <time>2020-09-10T12:07:45Z</time>
      </trkpt>
      <trkpt lat="44.1172" lon="7.19611">
        <ele>2410.6</ele>
        <time>2020-09-10T12:07:53Z</time>
      </trkpt>
      <trkpt lat="44.11714" lon="7.19599">
        <ele>2408.8</ele>
        <time>2020-09-10T12:08:04Z</time>
      </trkpt>
      <trkpt lat="44.11712" lon="7.19587">
        <ele>2407.9</ele>
        <time>2020-09-10T12:08:10Z</time>
      </trkpt>
      <trkpt lat="44.11713" lon="7.19574">
        <ele>2405.3</ele>
        <time>2020-09-10T12:08:23Z</time>
      </trkpt>
      <trkpt lat="44.1172" lon="7.19564">
        <ele>2404.2</ele>
        <time>2020-09-10T12:08:33Z</time>
      </trkpt>
      <trkpt lat="44.11722" lon="7.19551">
        <ele>2402.3</ele>
        <time>2020-09-10T12:08:44Z</time>
      </trkpt>
      <trkpt lat="44.11721" lon="7.19539">
        <ele>2401.4</ele>
        <time>2020-09-10T12:08:55Z</time>
      </trkpt>
      <trkpt lat="44.11721" lon="7.19526">
        <ele>2399.9</ele>
        <time>2020-09-10T12:09:09Z</time>
      </trkpt>
      <trkpt lat="44.1172" lon="7.19513">
        <ele>2397.6</ele>
        <time>2020-09-10T12:09:24Z</time>
      </trkpt>
      <trkpt lat="44.11713" lon="7.19505">
        <ele>2393.3</ele>
        <time>2020-09-10T12:10:02Z</time>
      </trkpt>
      <trkpt lat="44.11708" lon="7.19495">
        <ele>2390.7</ele>
        <time>2020-09-10T12:10:23Z</time>
      </trkpt>
      <trkpt lat="44.11699" lon="7.19496">
        <ele>2388.1</ele>
        <time>2020-09-10T12:10:38Z</time>
      </trkpt>
      <trkpt lat="44.1169" lon="7.19495">
        <ele>2385.5</ele>
        <time>2020-09-10T12:10:54Z</time>
      </trkpt>
      <trkpt lat="44.11681" lon="7.19493">
        <ele>2384.5</ele>
        <time>2020-09-10T12:11:08Z</time>
      </trkpt>
      <trkpt lat="44.11672" lon="7.19493">
        <ele>2382.7</ele>
        <time>2020-09-10T12:11:23Z</time>
      </trkpt>
      <trkpt lat="44.11665" lon="7.19485">
        <ele>2380.4</ele>
        <time>2020-09-10T12:11:41Z</time>
      </trkpt>
      <trkpt lat="44.11655" lon="7.19481">
        <ele>2377.7</ele>
        <time>2020-09-10T12:12:02Z</time>
      </trkpt>
      <trkpt lat="44.11646" lon="7.19479">
        <ele>2376.5</ele>
        <time>2020-09-10T12:12:19Z</time>
      </trkpt>
      <trkpt lat="44.11637" lon="7.19479">
        <ele>2375.3</ele>
        <time>2020-09-10T12:12:28Z</time>
      </trkpt>
      <trkpt lat="44.11628" lon="7.19475">
        <ele>2372.9</ele>
        <time>2020-09-10T12:12:42Z</time>
      </trkpt>
      <trkpt lat="44.11618" lon="7.1947">
        <ele>2370.9</ele>
        <time>2020-09-10T12:12:53Z</time>
      </trkpt>
      <trkpt lat="44.1161" lon="7.19464">
        <ele>2368.7</ele>
        <time>2020-09-10T12:13:04Z</time>
      </trkpt>
      <trkpt lat="44.11601" lon="7.19456">
        <ele>2367.9</ele>
        <time>2020-09-10T12:13:10Z</time>
      </trkpt>
      <trkpt lat="44.11593" lon="7.19449">
        <ele>2366.5</ele>
        <time>2020-09-10T12:13:20Z</time>
      </trkpt>
      <trkpt lat="44.11584" lon="7.19442">
        <ele>2366.5</ele>
        <time>2020-09-10T12:13:27Z</time>
      </trkpt>
      <trkpt lat="44.11576" lon="7.19436">
        <ele>2366.1</ele>
        <time>2020-09-10T12:13:33Z</time>
      </trkpt>
      <trkpt lat="44.11566" lon="7.19436">
        <ele>2365.1</ele>
        <time>2020-09-10T12:13:48Z</time>
      </trkpt>
      <trkpt lat="44.11559" lon="7.19427">
        <ele>2365.5</ele>
        <time>2020-09-10T12:14:04Z</time>
      </trkpt>
      <trkpt lat="44.11551" lon="7.1942">
        <ele>2365.6</ele>
        <time>2020-09-10T12:14:13Z</time>
      </trkpt>
      <trkpt lat="44.11542" lon="7.19414">
        <ele>2365.6</ele>
        <time>2020-09-10T12:14:22Z</time>
      </trkpt>
      <trkpt lat="44.11533" lon="7.19413">
        <ele>2365.2</ele>
        <time>2020-09-10T12:14:30Z</time>
      </trkpt>
      <trkpt lat="44.11524" lon="7.19413">
        <ele>2364.6</ele>
        <time>2020-09-10T12:14:38Z</time>
      </trkpt>
      <trkpt lat="44.11514" lon="7.19413">
        <ele>2364.2</ele>
        <time>2020-09-10T12:14:47Z</time>
      </trkpt>
      <trkpt lat="44.11504" lon="7.19414">
        <ele>2362.6</ele>
        <time>2020-09-10T12:14:59Z</time>
      </trkpt>
      <trkpt lat="44.11495" lon="7.19418">
        <ele>2360.7</ele>
        <time>2020-09-10T12:15:16Z</time>
      </trkpt>
      <trkpt lat="44.11486" lon="7.19418">
        <ele>2356.5</ele>
        <time>2020-09-10T12:15:38Z</time>
      </trkpt>
      <trkpt lat="44.11478" lon="7.19427">
        <ele>2353.8</ele>
        <time>2020-09-10T12:15:51Z</time>
      </trkpt>
      <trkpt lat="44.1147" lon="7.19433">
        <ele>2352.2</ele>
        <time>2020-09-10T12:16:02Z</time>
      </trkpt>
      <trkpt lat="44.11461" lon="7.19438">
        <ele>2350.2</ele>
        <time>2020-09-10T12:16:15Z</time>
      </trkpt>
      <trkpt lat="44.11451" lon="7.19434">
        <ele>2348.9</ele>
        <time>2020-09-10T12:16:26Z</time>
      </trkpt>
      <trkpt lat="44.11442" lon="7.19437">
        <ele>2347.5</ele>
        <time>2020-09-10T12:16:39Z</time>
      </trkpt>
      <trkpt lat="44.11433" lon="7.19441">
        <ele>2346.4</ele>
        <time>2020-09-10T12:16:51Z</time>
      </trkpt>
      <trkpt lat="44.11426" lon="7.19449">
        <ele>2343.1</ele>
        <time>2020-09-10T12:17:10Z</time>
      </trkpt>
      <trkpt lat="44.11417" lon="7.19447">
        <ele>2340.9</ele>
        <time>2020-09-10T12:17:22Z</time>
      </trkpt>
      <trkpt lat="44.11408" lon="7.19449">
        <ele>2338.3</ele>
        <time>2020-09-10T12:17:41Z</time>
      </trkpt>
      <trkpt lat="44.11398" lon="7.19449">
        <ele>2336.6</ele>
        <time>2020-09-10T12:17:54Z</time>
      </trkpt>
      <trkpt lat="44.11389" lon="7.1945">
        <ele>2334.5</ele>
        <time>2020-09-10T12:18:07Z</time>
      </trkpt>
      <trkpt lat="44.11381" lon="7.19446">
        <ele>2332.6</ele>
        <time>2020-09-10T12:18:18Z</time>
      </trkpt>
      <trkpt lat="44.11371" lon="7.19447">
        <ele>2330.7</ele>
        <time>2020-09-10T12:18:31Z</time>
      </trkpt>
      <trkpt lat="44.11362" lon="7.19442">
        <ele>2329.2</ele>
        <time>2020-09-10T12:18:44Z</time>
      </trkpt>
      <trkpt lat="44.11353" lon="7.19443">
        <ele>2327.8</ele>
        <time>2020-09-10T12:18:54Z</time>
      </trkpt>
      <trkpt lat="44.11344" lon="7.19446">
        <ele>2326.8</ele>
        <time>2020-09-10T12:19:20Z</time>
      </trkpt>
      <trkpt lat="44.11337" lon="7.19437">
        <ele>2325.4</ele>
        <time>2020-09-10T12:20:49Z</time>
      </trkpt>
      <trkpt lat="44.11334" lon="7.19449">
        <ele>2325</ele>
        <time>2020-09-10T12:22:17Z</time>
      </trkpt>
      <trkpt lat="44.11323" lon="7.19448">
        <ele>2324.5</ele>
        <time>2020-09-10T12:22:29Z</time>
      </trkpt>
      <trkpt lat="44.11314" lon="7.19444">
        <ele>2325.3</ele>
        <time>2020-09-10T12:22:45Z</time>
      </trkpt>
      <trkpt lat="44.11306" lon="7.19436">
        <ele>2325.5</ele>
        <time>2020-09-10T12:22:57Z</time>
      </trkpt>
      <trkpt lat="44.11297" lon="7.19434">
        <ele>2326.2</ele>
        <time>2020-09-10T12:23:06Z</time>
      </trkpt>
      <trkpt lat="44.11287" lon="7.19433">
        <ele>2325.3</ele>
        <time>2020-09-10T12:23:18Z</time>
      </trkpt>
      <trkpt lat="44.11278" lon="7.19431">
        <ele>2323.5</ele>
        <time>2020-09-10T12:23:39Z</time>
      </trkpt>
      <trkpt lat="44.11269" lon="7.19426">
        <ele>2322.8</ele>
        <time>2020-09-10T12:24:09Z</time>
      </trkpt>
      <trkpt lat="44.1126" lon="7.19422">
        <ele>2321.6</ele>
        <time>2020-09-10T12:24:20Z</time>
      </trkpt>
      <trkpt lat="44.11252" lon="7.19418">
        <ele>2320.2</ele>
        <time>2020-09-10T12:24:33Z</time>
      </trkpt>
      <trkpt lat="44.11243" lon="7.19414">
        <ele>2318.5</ele>
        <time>2020-09-10T12:24:45Z</time>
      </trkpt>
      <trkpt lat="44.11235" lon="7.19407">
        <ele>2317</ele>
        <time>2020-09-10T12:24:56Z</time>
      </trkpt>
      <trkpt lat="44.11226" lon="7.194">
        <ele>2315.6</ele>
        <time>2020-09-10T12:25:06Z</time>
      </trkpt>
      <trkpt lat="44.11219" lon="7.19393">
        <ele>2314.8</ele>
        <time>2020-09-10T12:25:13Z</time>
      </trkpt>
      <trkpt lat="44.11208" lon="7.1939">
        <ele>2315</ele>
        <time>2020-09-10T12:25:23Z</time>
      </trkpt>
      <trkpt lat="44.11198" lon="7.19392">
        <ele>2315.7</ele>
        <time>2020-09-10T12:25:34Z</time>
      </trkpt>
      <trkpt lat="44.11188" lon="7.19394">
        <ele>2315.1</ele>
        <time>2020-09-10T12:25:43Z</time>
      </trkpt>
      <trkpt lat="44.11179" lon="7.19396">
        <ele>2316.6</ele>
        <time>2020-09-10T12:25:51Z</time>
      </trkpt>
      <trkpt lat="44.11169" lon="7.19401">
        <ele>2316.1</ele>
        <time>2020-09-10T12:26:00Z</time>
      </trkpt>
      <trkpt lat="44.1116" lon="7.194">
        <ele>2316.8</ele>
        <time>2020-09-10T12:26:09Z</time>
      </trkpt>
      <trkpt lat="44.11151" lon="7.19398">
        <ele>2317.4</ele>
        <time>2020-09-10T12:26:18Z</time>
      </trkpt>
      <trkpt lat="44.11144" lon="7.19406">
        <ele>2317.6</ele>
        <time>2020-09-10T12:26:40Z</time>
      </trkpt>
      <trkpt lat="44.11135" lon="7.19407">
        <ele>2316.9</ele>
        <time>2020-09-10T12:26:56Z</time>
      </trkpt>
      <trkpt lat="44.11126" lon="7.19403">
        <ele>2314.4</ele>
        <time>2020-09-10T12:27:13Z</time>
      </trkpt>
      <trkpt lat="44.11117" lon="7.19401">
        <ele>2312.7</ele>
        <time>2020-09-10T12:27:24Z</time>
      </trkpt>
      <trkpt lat="44.11107" lon="7.194">
        <ele>2310.7</ele>
        <time>2020-09-10T12:27:39Z</time>
      </trkpt>
      <trkpt lat="44.111" lon="7.19407">
        <ele>2309.5</ele>
        <time>2020-09-10T12:27:51Z</time>
      </trkpt>
      <trkpt lat="44.11092" lon="7.19401">
        <ele>2304.6</ele>
        <time>2020-09-10T12:28:21Z</time>
      </trkpt>
      <trkpt lat="44.11087" lon="7.19389">
        <ele>2301.8</ele>
        <time>2020-09-10T12:28:36Z</time>
      </trkpt>
      <trkpt lat="44.11082" lon="7.19378">
        <ele>2299.9</ele>
        <time>2020-09-10T12:28:50Z</time>
      </trkpt>
      <trkpt lat="44.11088" lon="7.19368">
        <ele>2296.5</ele>
        <time>2020-09-10T12:29:18Z</time>
      </trkpt>
      <trkpt lat="44.1109" lon="7.19355">
        <ele>2294.7</ele>
        <time>2020-09-10T12:29:34Z</time>
      </trkpt>
      <trkpt lat="44.11085" lon="7.19344">
        <ele>2292.7</ele>
        <time>2020-09-10T12:29:45Z</time>
      </trkpt>
      <trkpt lat="44.11079" lon="7.19333">
        <ele>2291.4</ele>
        <time>2020-09-10T12:29:59Z</time>
      </trkpt>
      <trkpt lat="44.11071" lon="7.19328">
        <ele>2290.2</ele>
        <time>2020-09-10T12:30:10Z</time>
      </trkpt>
      <trkpt lat="44.11065" lon="7.19318">
        <ele>2288</ele>
        <time>2020-09-10T12:30:36Z</time>
      </trkpt>
      <trkpt lat="44.11061" lon="7.19306">
        <ele>2285.9</ele>
        <time>2020-09-10T12:30:54Z</time>
      </trkpt>
      <trkpt lat="44.11054" lon="7.19297">
        <ele>2283.5</ele>
        <time>2020-09-10T12:31:10Z</time>
      </trkpt>
      <trkpt lat="44.11048" lon="7.19287">
        <ele>2282.1</ele>
        <time>2020-09-10T12:31:37Z</time>
      </trkpt>
      <trkpt lat="44.1104" lon="7.19279">
        <ele>2281.4</ele>
        <time>2020-09-10T12:31:45Z</time>
      </trkpt>
      <trkpt lat="44.11032" lon="7.1927">
        <ele>2280.9</ele>
        <time>2020-09-10T12:31:59Z</time>
      </trkpt>
      <trkpt lat="44.11023" lon="7.19262">
        <ele>2280.7</ele>
        <time>2020-09-10T12:32:07Z</time>
      </trkpt>
      <trkpt lat="44.11018" lon="7.19251">
        <ele>2280.9</ele>
        <time>2020-09-10T12:32:21Z</time>
      </trkpt>
      <trkpt lat="44.11011" lon="7.1924">
        <ele>2283</ele>
        <time>2020-09-10T12:32:35Z</time>
      </trkpt>
      <trkpt lat="44.11002" lon="7.19236">
        <ele>2286</ele>
        <time>2020-09-10T12:32:56Z</time>
      </trkpt>
      <trkpt lat="44.10994" lon="7.19229">
        <ele>2287.4</ele>
        <time>2020-09-10T12:33:09Z</time>
      </trkpt>
      <trkpt lat="44.10985" lon="7.19224">
        <ele>2288.7</ele>
        <time>2020-09-10T12:33:19Z</time>
      </trkpt>
      <trkpt lat="44.10976" lon="7.19221">
        <ele>2289.2</ele>
        <time>2020-09-10T12:33:31Z</time>
      </trkpt>
      <trkpt lat="44.10967" lon="7.19218">
        <ele>2288.5</ele>
        <time>2020-09-10T12:33:46Z</time>
      </trkpt>
      <trkpt lat="44.10958" lon="7.1922">
        <ele>2287.5</ele>
        <time>2020-09-10T12:33:57Z</time>
      </trkpt>
      <trkpt lat="44.10949" lon="7.19222">
        <ele>2286.9</ele>
        <time>2020-09-10T12:34:07Z</time>
      </trkpt>
      <trkpt lat="44.10939" lon="7.19225">
        <ele>2285.6</ele>
        <time>2020-09-10T12:34:17Z</time>
      </trkpt>
      <trkpt lat="44.1093" lon="7.19229">
        <ele>2284.6</ele>
        <time>2020-09-10T12:34:28Z</time>
      </trkpt>
      <trkpt lat="44.10921" lon="7.19232">
        <ele>2283.1</ele>
        <time>2020-09-10T12:34:45Z</time>
      </trkpt>
      <trkpt lat="44.10912" lon="7.19235">
        <ele>2282.5</ele>
        <time>2020-09-10T12:34:55Z</time>
      </trkpt>
      <trkpt lat="44.10903" lon="7.1924">
        <ele>2281.6</ele>
        <time>2020-09-10T12:35:04Z</time>
      </trkpt>
      <trkpt lat="44.10894" lon="7.19242">
        <ele>2281</ele>
        <time>2020-09-10T12:35:13Z</time>
      </trkpt>
      <trkpt lat="44.10884" lon="7.19244">
        <ele>2280.2</ele>
        <time>2020-09-10T12:35:31Z</time>
      </trkpt>
      <trkpt lat="44.10875" lon="7.19239">
        <ele>2280</ele>
        <time>2020-09-10T12:35:45Z</time>
      </trkpt>
      <trkpt lat="44.10866" lon="7.19235">
        <ele>2280.2</ele>
        <time>2020-09-10T12:35:57Z</time>
      </trkpt>
      <trkpt lat="44.10859" lon="7.19227">
        <ele>2280.2</ele>
        <time>2020-09-10T12:36:17Z</time>
      </trkpt>
      <trkpt lat="44.10851" lon="7.1922">
        <ele>2278.7</ele>
        <time>2020-09-10T12:36:26Z</time>
      </trkpt>
      <trkpt lat="44.10842" lon="7.19215">
        <ele>2278.3</ele>
        <time>2020-09-10T12:36:37Z</time>
      </trkpt>
      <trkpt lat="44.10834" lon="7.1921">
        <ele>2278.3</ele>
        <time>2020-09-10T12:36:46Z</time>
      </trkpt>
      <trkpt lat="44.10826" lon="7.19206">
        <ele>2278.9</ele>
        <time>2020-09-10T12:36:58Z</time>
      </trkpt>
      <trkpt lat="44.10817" lon="7.19202">
        <ele>2279.1</ele>
        <time>2020-09-10T12:37:10Z</time>
      </trkpt>
      <trkpt lat="44.10808" lon="7.19198">
        <ele>2280.2</ele>
        <time>2020-09-10T12:37:20Z</time>
      </trkpt>
      <trkpt lat="44.108" lon="7.19191">
        <ele>2280.4</ele>
        <time>2020-09-10T12:37:29Z</time>
      </trkpt>
      <trkpt lat="44.10793" lon="7.19183">
        <ele>2281.3</ele>
        <time>2020-09-10T12:37:40Z</time>
      </trkpt>
      <trkpt lat="44.10784" lon="7.19178">
        <ele>2280.8</ele>
        <time>2020-09-10T12:37:48Z</time>
      </trkpt>
      <trkpt lat="44.10776" lon="7.19171">
        <ele>2280.7</ele>
        <time>2020-09-10T12:37:56Z</time>
      </trkpt>
      <trkpt lat="44.10767" lon="7.19168">
        <ele>2279.8</ele>
        <time>2020-09-10T12:38:07Z</time>
      </trkpt>
      <trkpt lat="44.10757" lon="7.19168">
        <ele>2278.3</ele>
        <time>2020-09-10T12:38:18Z</time>
      </trkpt>
      <trkpt lat="44.10748" lon="7.19166">
        <ele>2279</ele>
        <time>2020-09-10T12:38:29Z</time>
      </trkpt>
      <trkpt lat="44.10739" lon="7.19165">
        <ele>2280.5</ele>
        <time>2020-09-10T12:38:46Z</time>
      </trkpt>
      <trkpt lat="44.10729" lon="7.19163">
        <ele>2282.1</ele>
        <time>2020-09-10T12:38:57Z</time>
      </trkpt>
      <trkpt lat="44.1072" lon="7.1916">
        <ele>2282.9</ele>
        <time>2020-09-10T12:39:09Z</time>
      </trkpt>
      <trkpt lat="44.10711" lon="7.19154">
        <ele>2284</ele>
        <time>2020-09-10T12:39:22Z</time>
      </trkpt>
      <trkpt lat="44.10702" lon="7.19152">
        <ele>2284.3</ele>
        <time>2020-09-10T12:39:33Z</time>
      </trkpt>
      <trkpt lat="44.10693" lon="7.1915">
        <ele>2285.2</ele>
        <time>2020-09-10T12:39:52Z</time>
      </trkpt>
      <trkpt lat="44.10684" lon="7.19148">
        <ele>2286.6</ele>
        <time>2020-09-10T12:40:03Z</time>
      </trkpt>
      <trkpt lat="44.10675" lon="7.19145">
        <ele>2288.5</ele>
        <time>2020-09-10T12:40:18Z</time>
      </trkpt>
      <trkpt lat="44.10666" lon="7.19144">
        <ele>2290.1</ele>
        <time>2020-09-10T12:40:30Z</time>
      </trkpt>
      <trkpt lat="44.10657" lon="7.19145">
        <ele>2291.5</ele>
        <time>2020-09-10T12:40:42Z</time>
      </trkpt>
      <trkpt lat="44.10649" lon="7.19141">
        <ele>2290.5</ele>
        <time>2020-09-10T12:40:51Z</time>
      </trkpt>
      <trkpt lat="44.1064" lon="7.19137">
        <ele>2289.9</ele>
        <time>2020-09-10T12:41:01Z</time>
      </trkpt>
      <trkpt lat="44.10631" lon="7.19134">
        <ele>2289</ele>
        <time>2020-09-10T12:41:12Z</time>
      </trkpt>
      <trkpt lat="44.10622" lon="7.1913">
        <ele>2287.9</ele>
        <time>2020-09-10T12:41:24Z</time>
      </trkpt>
      <trkpt lat="44.10613" lon="7.19123">
        <ele>2287.3</ele>
        <time>2020-09-10T12:41:34Z</time>
      </trkpt>
      <trkpt lat="44.10604" lon="7.19116">
        <ele>2286.4</ele>
        <time>2020-09-10T12:41:45Z</time>
      </trkpt>
      <trkpt lat="44.10596" lon="7.19107">
        <ele>2285.7</ele>
        <time>2020-09-10T12:41:55Z</time>
      </trkpt>
      <trkpt lat="44.10589" lon="7.19099">
        <ele>2285.7</ele>
        <time>2020-09-10T12:42:02Z</time>
      </trkpt>
      <trkpt lat="44.10582" lon="7.1909">
        <ele>2285</ele>
        <time>2020-09-10T12:42:12Z</time>
      </trkpt>
      <trkpt lat="44.10573" lon="7.19085">
        <ele>2283.7</ele>
        <time>2020-09-10T12:42:24Z</time>
      </trkpt>
      <trkpt lat="44.10564" lon="7.19084">
        <ele>2282.2</ele>
        <time>2020-09-10T12:42:35Z</time>
      </trkpt>
      <trkpt lat="44.10555" lon="7.19082">
        <ele>2280.5</ele>
        <time>2020-09-10T12:42:47Z</time>
      </trkpt>
      <trkpt lat="44.10545" lon="7.19084">
        <ele>2278.1</ele>
        <time>2020-09-10T12:43:00Z</time>
      </trkpt>
      <trkpt lat="44.10535" lon="7.19086">
        <ele>2276.2</ele>
        <time>2020-09-10T12:43:10Z</time>
      </trkpt>
      <trkpt lat="44.10526" lon="7.19084">
        <ele>2275.1</ele>
        <time>2020-09-10T12:43:21Z</time>
      </trkpt>
      <trkpt lat="44.10518" lon="7.19078">
        <ele>2273.7</ele>
        <time>2020-09-10T12:43:33Z</time>
      </trkpt>
      <trkpt lat="44.1051" lon="7.19071">
        <ele>2271.6</ele>
        <time>2020-09-10T12:43:43Z</time>
      </trkpt>
      <trkpt lat="44.10506" lon="7.1906">
        <ele>2270.2</ele>
        <time>2020-09-10T12:43:52Z</time>
      </trkpt>
      <trkpt lat="44.10502" lon="7.19048">
        <ele>2267.7</ele>
        <time>2020-09-10T12:44:03Z</time>
      </trkpt>
      <trkpt lat="44.10495" lon="7.19036">
        <ele>2265.4</ele>
        <time>2020-09-10T12:44:14Z</time>
      </trkpt>
      <trkpt lat="44.10491" lon="7.19025">
        <ele>2262.3</ele>
        <time>2020-09-10T12:44:26Z</time>
      </trkpt>
      <trkpt lat="44.10489" lon="7.19012">
        <ele>2259</ele>
        <time>2020-09-10T12:44:44Z</time>
      </trkpt>
      <trkpt lat="44.10488" lon="7.18999">
        <ele>2256.2</ele>
        <time>2020-09-10T12:44:58Z</time>
      </trkpt>
      <trkpt lat="44.10485" lon="7.18986">
        <ele>2253</ele>
        <time>2020-09-10T12:45:12Z</time>
      </trkpt>
      <trkpt lat="44.10483" lon="7.18974">
        <ele>2249.5</ele>
        <time>2020-09-10T12:45:25Z</time>
      </trkpt>
      <trkpt lat="44.10478" lon="7.18963">
        <ele>2246.6</ele>
        <time>2020-09-10T12:45:37Z</time>
      </trkpt>
      <trkpt lat="44.10476" lon="7.18951">
        <ele>2244.2</ele>
        <time>2020-09-10T12:45:50Z</time>
      </trkpt>
      <trkpt lat="44.10469" lon="7.18941">
        <ele>2242.2</ele>
        <time>2020-09-10T12:46:03Z</time>
      </trkpt>
      <trkpt lat="44.10465" lon="7.1893">
        <ele>2239.6</ele>
        <time>2020-09-10T12:46:18Z</time>
      </trkpt>
      <trkpt lat="44.10457" lon="7.18924">
        <ele>2238.2</ele>
        <time>2020-09-10T12:46:30Z</time>
      </trkpt>
      <trkpt lat="44.10451" lon="7.18914">
        <ele>2235.6</ele>
        <time>2020-09-10T12:46:49Z</time>
      </trkpt>
      <trkpt lat="44.10451" lon="7.18901">
        <ele>2231.8</ele>
        <time>2020-09-10T12:47:15Z</time>
      </trkpt>
      <trkpt lat="44.10445" lon="7.18891">
        <ele>2229.8</ele>
        <time>2020-09-10T12:47:34Z</time>
      </trkpt>
      <trkpt lat="44.10437" lon="7.18884">
        <ele>2227.2</ele>
        <time>2020-09-10T12:47:52Z</time>
      </trkpt>
      <trkpt lat="44.10428" lon="7.18879">
        <ele>2223.1</ele>
        <time>2020-09-10T12:48:18Z</time>
      </trkpt>
      <trkpt lat="44.10421" lon="7.18872">
        <ele>2220.8</ele>
        <time>2020-09-10T12:48:33Z</time>
      </trkpt>
      <trkpt lat="44.10415" lon="7.18862">
        <ele>2218.1</ele>
        <time>2020-09-10T12:48:48Z</time>
      </trkpt>
      <trkpt lat="44.10408" lon="7.18853">
        <ele>2216.8</ele>
        <time>2020-09-10T12:48:56Z</time>
      </trkpt>
      <trkpt lat="44.10402" lon="7.18842">
        <ele>2215.5</ele>
        <time>2020-09-10T12:50:22Z</time>
      </trkpt>
      <trkpt lat="44.10395" lon="7.18835">
        <ele>2214.7</ele>
        <time>2020-09-10T12:50:37Z</time>
      </trkpt>
      <trkpt lat="44.10387" lon="7.18827">
        <ele>2213</ele>
        <time>2020-09-10T12:50:55Z</time>
      </trkpt>
      <trkpt lat="44.10379" lon="7.18832">
        <ele>2208.8</ele>
        <time>2020-09-10T12:51:22Z</time>
      </trkpt>
      <trkpt lat="44.10369" lon="7.18833">
        <ele>2206.8</ele>
        <time>2020-09-10T12:51:40Z</time>
      </trkpt>
      <trkpt lat="44.1036" lon="7.18836">
        <ele>2204</ele>
        <time>2020-09-10T12:51:57Z</time>
      </trkpt>
      <trkpt lat="44.10351" lon="7.18839">
        <ele>2201.4</ele>
        <time>2020-09-10T12:52:15Z</time>
      </trkpt>
      <trkpt lat="44.10351" lon="7.18852">
        <ele>2196.2</ele>
        <time>2020-09-10T12:52:51Z</time>
      </trkpt>
      <trkpt lat="44.10358" lon="7.18861">
        <ele>2194.4</ele>
        <time>2020-09-10T12:53:05Z</time>
      </trkpt>
      <trkpt lat="44.10364" lon="7.18872">
        <ele>2192.4</ele>
        <time>2020-09-10T12:53:20Z</time>
      </trkpt>
      <trkpt lat="44.10369" lon="7.18882">
        <ele>2190.4</ele>
        <time>2020-09-10T12:53:33Z</time>
      </trkpt>
      <trkpt lat="44.10372" lon="7.18894">
        <ele>2189.2</ele>
        <time>2020-09-10T12:54:01Z</time>
      </trkpt>
      <trkpt lat="44.10363" lon="7.18896">
        <ele>2184.7</ele>
        <time>2020-09-10T12:54:33Z</time>
      </trkpt>
      <trkpt lat="44.10354" lon="7.18893">
        <ele>2182.6</ele>
        <time>2020-09-10T12:54:47Z</time>
      </trkpt>
      <trkpt lat="44.10344" lon="7.18894">
        <ele>2179.7</ele>
        <time>2020-09-10T12:55:02Z</time>
      </trkpt>
      <trkpt lat="44.10335" lon="7.18894">
        <ele>2177.4</ele>
        <time>2020-09-10T12:55:16Z</time>
      </trkpt>
      <trkpt lat="44.10326" lon="7.18895">
        <ele>2175.4</ele>
        <time>2020-09-10T12:55:32Z</time>
      </trkpt>
      <trkpt lat="44.10317" lon="7.18895">
        <ele>2174.1</ele>
        <time>2020-09-10T12:55:46Z</time>
      </trkpt>
      <trkpt lat="44.10309" lon="7.18902">
        <ele>2172.2</ele>
        <time>2020-09-10T12:56:00Z</time>
      </trkpt>
      <trkpt lat="44.103" lon="7.18907">
        <ele>2170.8</ele>
        <time>2020-09-10T12:56:10Z</time>
      </trkpt>
      <trkpt lat="44.10291" lon="7.18906">
        <ele>2168.2</ele>
        <time>2020-09-10T12:56:24Z</time>
      </trkpt>
      <trkpt lat="44.10282" lon="7.18902">
        <ele>2166.1</ele>
        <time>2020-09-10T12:56:36Z</time>
      </trkpt>
      <trkpt lat="44.10272" lon="7.18899">
        <ele>2163.1</ele>
        <time>2020-09-10T12:56:53Z</time>
      </trkpt>
      <trkpt lat="44.10263" lon="7.18898">
        <ele>2160.5</ele>
        <time>2020-09-10T12:57:06Z</time>
      </trkpt>
      <trkpt lat="44.10254" lon="7.18902">
        <ele>2156.6</ele>
        <time>2020-09-10T12:57:22Z</time>
      </trkpt>
      <trkpt lat="44.10245" lon="7.18903">
        <ele>2153</ele>
        <time>2020-09-10T12:57:37Z</time>
      </trkpt>
      <trkpt lat="44.10236" lon="7.18905">
        <ele>2148.5</ele>
        <time>2020-09-10T12:57:56Z</time>
      </trkpt>
      <trkpt lat="44.10226" lon="7.18906">
        <ele>2145.5</ele>
        <time>2020-09-10T12:58:10Z</time>
      </trkpt>
      <trkpt lat="44.10218" lon="7.18913">
        <ele>2141.6</ele>
        <time>2020-09-10T12:58:34Z</time>
      </trkpt>
      <trkpt lat="44.10209" lon="7.18916">
        <ele>2137.8</ele>
        <time>2020-09-10T12:58:50Z</time>
      </trkpt>
      <trkpt lat="44.10201" lon="7.1892">
        <ele>2134.3</ele>
        <time>2020-09-10T12:59:04Z</time>
      </trkpt>
      <trkpt lat="44.10191" lon="7.18921">
        <ele>2131.3</ele>
        <time>2020-09-10T12:59:20Z</time>
      </trkpt>
      <trkpt lat="44.10182" lon="7.18917">
        <ele>2129.8</ele>
        <time>2020-09-10T12:59:33Z</time>
      </trkpt>
      <trkpt lat="44.10176" lon="7.18907">
        <ele>2127.3</ele>
        <time>2020-09-10T12:59:50Z</time>
      </trkpt>
      <trkpt lat="44.1017" lon="7.18896">
        <ele>2126.5</ele>
        <time>2020-09-10T13:00:00Z</time>
      </trkpt>
      <trkpt lat="44.10164" lon="7.18887">
        <ele>2125.4</ele>
        <time>2020-09-10T13:00:14Z</time>
      </trkpt>
      <trkpt lat="44.10158" lon="7.18876">
        <ele>2124</ele>
        <time>2020-09-10T13:01:30Z</time>
      </trkpt>
      <trkpt lat="44.10151" lon="7.18867">
        <ele>2122.5</ele>
        <time>2020-09-10T13:01:39Z</time>
      </trkpt>
      <trkpt lat="44.10144" lon="7.18859">
        <ele>2120.4</ele>
        <time>2020-09-10T13:01:50Z</time>
      </trkpt>
      <trkpt lat="44.10138" lon="7.18848">
        <ele>2118.1</ele>
        <time>2020-09-10T13:02:02Z</time>
      </trkpt>
      <trkpt lat="44.10132" lon="7.18836">
        <ele>2116</ele>
        <time>2020-09-10T13:02:15Z</time>
      </trkpt>
      <trkpt lat="44.10126" lon="7.18825">
        <ele>2112.4</ele>
        <time>2020-09-10T13:02:31Z</time>
      </trkpt>
      <trkpt lat="44.10118" lon="7.18816">
        <ele>2109.3</ele>
        <time>2020-09-10T13:02:44Z</time>
      </trkpt>
      <trkpt lat="44.10114" lon="7.18804">
        <ele>2107</ele>
        <time>2020-09-10T13:02:57Z</time>
      </trkpt>
      <trkpt lat="44.10105" lon="7.18799">
        <ele>2105.1</ele>
        <time>2020-09-10T13:03:08Z</time>
      </trkpt>
      <trkpt lat="44.10096" lon="7.18801">
        <ele>2102.7</ele>
        <time>2020-09-10T13:03:19Z</time>
      </trkpt>
      <trkpt lat="44.10087" lon="7.18803">
        <ele>2100.6</ele>
        <time>2020-09-10T13:03:29Z</time>
      </trkpt>
      <trkpt lat="44.10078" lon="7.18797">
        <ele>2099.1</ele>
        <time>2020-09-10T13:03:40Z</time>
      </trkpt>
      <trkpt lat="44.1007" lon="7.18791">
        <ele>2097.6</ele>
        <time>2020-09-10T13:03:50Z</time>
      </trkpt>
      <trkpt lat="44.10061" lon="7.18784">
        <ele>2093.8</ele>
        <time>2020-09-10T13:04:09Z</time>
      </trkpt>
      <trkpt lat="44.10052" lon="7.18779">
        <ele>2090.6</ele>
        <time>2020-09-10T13:04:24Z</time>
      </trkpt>
      <trkpt lat="44.10044" lon="7.18775">
        <ele>2088.4</ele>
        <time>2020-09-10T13:04:35Z</time>
      </trkpt>
      <trkpt lat="44.10035" lon="7.18769">
        <ele>2085.1</ele>
        <time>2020-09-10T13:04:52Z</time>
      </trkpt>
      <trkpt lat="44.10028" lon="7.18761">
        <ele>2082.4</ele>
        <time>2020-09-10T13:05:03Z</time>
      </trkpt>
      <trkpt lat="44.10021" lon="7.18753">
        <ele>2079.2</ele>
        <time>2020-09-10T13:05:16Z</time>
      </trkpt>
      <trkpt lat="44.10014" lon="7.18744">
        <ele>2077.6</ele>
        <time>2020-09-10T13:05:25Z</time>
      </trkpt>
      <trkpt lat="44.10006" lon="7.18738">
        <ele>2076.7</ele>
        <time>2020-09-10T13:05:35Z</time>
      </trkpt>
      <trkpt lat="44.09996" lon="7.18732">
        <ele>2076.5</ele>
        <time>2020-09-10T13:05:45Z</time>
      </trkpt>
      <trkpt lat="44.09988" lon="7.18727">
        <ele>2076.1</ele>
        <time>2020-09-10T13:05:54Z</time>
      </trkpt>
      <trkpt lat="44.0998" lon="7.1872">
        <ele>2075.5</ele>
        <time>2020-09-10T13:06:05Z</time>
      </trkpt>
      <trkpt lat="44.09971" lon="7.18715">
        <ele>2074.5</ele>
        <time>2020-09-10T13:06:14Z</time>
      </trkpt>
      <trkpt lat="44.09962" lon="7.1871">
        <ele>2073.8</ele>
        <time>2020-09-10T13:06:24Z</time>
      </trkpt>
      <trkpt lat="44.09953" lon="7.18705">
        <ele>2072.6</ele>
        <time>2020-09-10T13:06:35Z</time>
      </trkpt>
      <trkpt lat="44.09944" lon="7.18699">
        <ele>2071.9</ele>
        <time>2020-09-10T13:06:45Z</time>
      </trkpt>
      <trkpt lat="44.09936" lon="7.18692">
        <ele>2071</ele>
        <time>2020-09-10T13:06:54Z</time>
      </trkpt>
      <trkpt lat="44.09927" lon="7.18687">
        <ele>2070.1</ele>
        <time>2020-09-10T13:07:01Z</time>
      </trkpt>
      <trkpt lat="44.09919" lon="7.18683">
        <ele>2068.8</ele>
        <time>2020-09-10T13:07:09Z</time>
      </trkpt>
      <trkpt lat="44.0991" lon="7.18678">
        <ele>2067.6</ele>
        <time>2020-09-10T13:07:18Z</time>
      </trkpt>
      <trkpt lat="44.09901" lon="7.18678">
        <ele>2065.3</ele>
        <time>2020-09-10T13:07:30Z</time>
      </trkpt>
      <trkpt lat="44.09892" lon="7.18672">
        <ele>2063.2</ele>
        <time>2020-09-10T13:07:40Z</time>
      </trkpt>
      <trkpt lat="44.09884" lon="7.18664">
        <ele>2062.2</ele>
        <time>2020-09-10T13:07:49Z</time>
      </trkpt>
      <trkpt lat="44.09876" lon="7.18658">
        <ele>2060.9</ele>
        <time>2020-09-10T13:08:00Z</time>
      </trkpt>
      <trkpt lat="44.09868" lon="7.18653">
        <ele>2059.2</ele>
        <time>2020-09-10T13:08:14Z</time>
      </trkpt>
      <trkpt lat="44.09858" lon="7.1865">
        <ele>2057.4</ele>
        <time>2020-09-10T13:08:25Z</time>
      </trkpt>
      <trkpt lat="44.0985" lon="7.18644">
        <ele>2057.2</ele>
        <time>2020-09-10T13:08:40Z</time>
      </trkpt>
      <trkpt lat="44.0984" lon="7.18644">
        <ele>2057.7</ele>
        <time>2020-09-10T13:12:31Z</time>
      </trkpt>
      <trkpt lat="44.09849" lon="7.1864">
        <ele>2058.8</ele>
        <time>2020-09-10T13:16:36Z</time>
      </trkpt>
      <trkpt lat="44.0985" lon="7.18636">
        <ele>2057.9</ele>
        <time>2020-09-10T13:17:18Z</time>
      </trkpt>
    </trkseg>
  </trk>
</gpx>